<?xml version="1.0" encoding="UTF-8" standalone="no" ?>
<gpx xmlns="http://www.topografix.com/GPX/1/1" xmlns:xsi="http://www.w3.org/2001/XMLSchema-instance" xsi:schemaLocation="http://www.topografix.com/GPX/1/1 http://www.topografix.com/GPX/1/1/gpx.xsd" version="1.1" creator="VisuGPX - https://www.visugpx.com">
  <metadata>
    <name>Erneuville MARCHE ADEPS 2015 (Aout)</name>
    <desc><![CDATA[Marche ADEPS pour un dimanche sympa]]></desc>
  </metadata>
  <trk>
    <name><![CDATA[duo choupy & scooby]]></name>
    <trkseg>
      <trkpt lat="50.11416" lon="5.55089">
        <ele>414</ele>
        <time>2015-08-16T08:09:54Z</time>
      </trkpt>
      <trkpt lat="50.11416" lon="5.55088">
        <ele>414</ele>
        <time>2015-08-16T08:09:59Z</time>
      </trkpt>
      <trkpt lat="50.11416" lon="5.55084">
        <ele>413</ele>
        <time>2015-08-16T08:10:05Z</time>
      </trkpt>
      <trkpt lat="50.11417" lon="5.55082">
        <ele>414</ele>
        <time>2015-08-16T08:10:10Z</time>
      </trkpt>
      <trkpt lat="50.11416" lon="5.55084">
        <ele>414</ele>
        <time>2015-08-16T08:10:15Z</time>
      </trkpt>
      <trkpt lat="50.11412" lon="5.55091">
        <ele>413</ele>
        <time>2015-08-16T08:10:21Z</time>
      </trkpt>
      <trkpt lat="50.11411" lon="5.55103">
        <ele>413</ele>
        <time>2015-08-16T08:10:27Z</time>
      </trkpt>
      <trkpt lat="50.11409" lon="5.55114">
        <ele>412</ele>
        <time>2015-08-16T08:10:33Z</time>
      </trkpt>
      <trkpt lat="50.11411" lon="5.55122">
        <ele>413</ele>
        <time>2015-08-16T08:10:39Z</time>
      </trkpt>
      <trkpt lat="50.11411" lon="5.55134">
        <ele>413</ele>
        <time>2015-08-16T08:10:45Z</time>
      </trkpt>
      <trkpt lat="50.11413" lon="5.55145">
        <ele>413</ele>
        <time>2015-08-16T08:10:51Z</time>
      </trkpt>
      <trkpt lat="50.11415" lon="5.55155">
        <ele>413</ele>
        <time>2015-08-16T08:10:57Z</time>
      </trkpt>
      <trkpt lat="50.11416" lon="5.55169">
        <ele>413</ele>
        <time>2015-08-16T08:11:03Z</time>
      </trkpt>
      <trkpt lat="50.11417" lon="5.55183">
        <ele>413</ele>
        <time>2015-08-16T08:11:09Z</time>
      </trkpt>
      <trkpt lat="50.11418" lon="5.55196">
        <ele>414</ele>
        <time>2015-08-16T08:11:15Z</time>
      </trkpt>
      <trkpt lat="50.11418" lon="5.55208">
        <ele>414</ele>
        <time>2015-08-16T08:11:21Z</time>
      </trkpt>
      <trkpt lat="50.11419" lon="5.5522">
        <ele>415</ele>
        <time>2015-08-16T08:11:27Z</time>
      </trkpt>
      <trkpt lat="50.1142" lon="5.55233">
        <ele>415</ele>
        <time>2015-08-16T08:11:33Z</time>
      </trkpt>
      <trkpt lat="50.11422" lon="5.55245">
        <ele>415</ele>
        <time>2015-08-16T08:11:39Z</time>
      </trkpt>
      <trkpt lat="50.11422" lon="5.55255">
        <ele>415</ele>
        <time>2015-08-16T08:11:45Z</time>
      </trkpt>
      <trkpt lat="50.11423" lon="5.55266">
        <ele>416</ele>
        <time>2015-08-16T08:11:50Z</time>
      </trkpt>
      <trkpt lat="50.11425" lon="5.55277">
        <ele>416</ele>
        <time>2015-08-16T08:11:56Z</time>
      </trkpt>
      <trkpt lat="50.11423" lon="5.55282">
        <ele>416</ele>
        <time>2015-08-16T08:12:02Z</time>
      </trkpt>
      <trkpt lat="50.11425" lon="5.55293">
        <ele>416</ele>
        <time>2015-08-16T08:12:08Z</time>
      </trkpt>
      <trkpt lat="50.11426" lon="5.55302">
        <ele>417</ele>
        <time>2015-08-16T08:12:13Z</time>
      </trkpt>
      <trkpt lat="50.11427" lon="5.5531">
        <ele>417</ele>
        <time>2015-08-16T08:12:18Z</time>
      </trkpt>
      <trkpt lat="50.1143" lon="5.55321">
        <ele>417</ele>
        <time>2015-08-16T08:12:24Z</time>
      </trkpt>
      <trkpt lat="50.11433" lon="5.55332">
        <ele>418</ele>
        <time>2015-08-16T08:12:30Z</time>
      </trkpt>
      <trkpt lat="50.11437" lon="5.5534">
        <ele>418</ele>
        <time>2015-08-16T08:12:36Z</time>
      </trkpt>
      <trkpt lat="50.11439" lon="5.55348">
        <ele>418</ele>
        <time>2015-08-16T08:12:42Z</time>
      </trkpt>
      <trkpt lat="50.1144" lon="5.55353">
        <ele>419</ele>
        <time>2015-08-16T08:12:48Z</time>
      </trkpt>
      <trkpt lat="50.11441" lon="5.5536">
        <ele>420</ele>
        <time>2015-08-16T08:12:53Z</time>
      </trkpt>
      <trkpt lat="50.11442" lon="5.5536">
        <ele>420</ele>
        <time>2015-08-16T08:12:59Z</time>
      </trkpt>
      <trkpt lat="50.11443" lon="5.55361">
        <ele>420</ele>
        <time>2015-08-16T08:13:05Z</time>
      </trkpt>
      <trkpt lat="50.11445" lon="5.55362">
        <ele>420</ele>
        <time>2015-08-16T08:13:11Z</time>
      </trkpt>
      <trkpt lat="50.11446" lon="5.55362">
        <ele>419</ele>
        <time>2015-08-16T08:13:16Z</time>
      </trkpt>
      <trkpt lat="50.11446" lon="5.55364">
        <ele>419</ele>
        <time>2015-08-16T08:13:22Z</time>
      </trkpt>
      <trkpt lat="50.11448" lon="5.55373">
        <ele>420</ele>
        <time>2015-08-16T08:13:28Z</time>
      </trkpt>
      <trkpt lat="50.1145" lon="5.55382">
        <ele>421</ele>
        <time>2015-08-16T08:13:34Z</time>
      </trkpt>
      <trkpt lat="50.11451" lon="5.5539">
        <ele>421</ele>
        <time>2015-08-16T08:13:39Z</time>
      </trkpt>
      <trkpt lat="50.11453" lon="5.55401">
        <ele>421</ele>
        <time>2015-08-16T08:13:45Z</time>
      </trkpt>
      <trkpt lat="50.11454" lon="5.55412">
        <ele>421</ele>
        <time>2015-08-16T08:13:51Z</time>
      </trkpt>
      <trkpt lat="50.11456" lon="5.55423">
        <ele>421</ele>
        <time>2015-08-16T08:13:57Z</time>
      </trkpt>
      <trkpt lat="50.11457" lon="5.55435">
        <ele>422</ele>
        <time>2015-08-16T08:14:03Z</time>
      </trkpt>
      <trkpt lat="50.11458" lon="5.55444">
        <ele>422</ele>
        <time>2015-08-16T08:14:08Z</time>
      </trkpt>
      <trkpt lat="50.11461" lon="5.55455">
        <ele>422</ele>
        <time>2015-08-16T08:14:14Z</time>
      </trkpt>
      <trkpt lat="50.11462" lon="5.55467">
        <ele>423</ele>
        <time>2015-08-16T08:14:20Z</time>
      </trkpt>
      <trkpt lat="50.11463" lon="5.55479">
        <ele>423</ele>
        <time>2015-08-16T08:14:26Z</time>
      </trkpt>
      <trkpt lat="50.11464" lon="5.55485">
        <ele>424</ele>
        <time>2015-08-16T08:14:31Z</time>
      </trkpt>
      <trkpt lat="50.11465" lon="5.55496">
        <ele>424</ele>
        <time>2015-08-16T08:14:37Z</time>
      </trkpt>
      <trkpt lat="50.11465" lon="5.55507">
        <ele>424</ele>
        <time>2015-08-16T08:14:43Z</time>
      </trkpt>
      <trkpt lat="50.11467" lon="5.55516">
        <ele>424</ele>
        <time>2015-08-16T08:14:49Z</time>
      </trkpt>
      <trkpt lat="50.11468" lon="5.55525">
        <ele>425</ele>
        <time>2015-08-16T08:14:54Z</time>
      </trkpt>
      <trkpt lat="50.11468" lon="5.55536">
        <ele>426</ele>
        <time>2015-08-16T08:15:00Z</time>
      </trkpt>
      <trkpt lat="50.1147" lon="5.55547">
        <ele>426</ele>
        <time>2015-08-16T08:15:06Z</time>
      </trkpt>
      <trkpt lat="50.11472" lon="5.55555">
        <ele>426</ele>
        <time>2015-08-16T08:15:11Z</time>
      </trkpt>
      <trkpt lat="50.11479" lon="5.55561">
        <ele>426</ele>
        <time>2015-08-16T08:15:17Z</time>
      </trkpt>
      <trkpt lat="50.11485" lon="5.55564">
        <ele>427</ele>
        <time>2015-08-16T08:15:23Z</time>
      </trkpt>
      <trkpt lat="50.11491" lon="5.55565">
        <ele>427</ele>
        <time>2015-08-16T08:15:28Z</time>
      </trkpt>
      <trkpt lat="50.11493" lon="5.55566">
        <ele>427</ele>
        <time>2015-08-16T08:15:34Z</time>
      </trkpt>
      <trkpt lat="50.115" lon="5.55568">
        <ele>427</ele>
        <time>2015-08-16T08:15:40Z</time>
      </trkpt>
      <trkpt lat="50.11506" lon="5.5557">
        <ele>427</ele>
        <time>2015-08-16T08:15:46Z</time>
      </trkpt>
      <trkpt lat="50.11514" lon="5.55572">
        <ele>428</ele>
        <time>2015-08-16T08:15:52Z</time>
      </trkpt>
      <trkpt lat="50.1152" lon="5.55574">
        <ele>428</ele>
        <time>2015-08-16T08:15:57Z</time>
      </trkpt>
      <trkpt lat="50.11527" lon="5.55577">
        <ele>428</ele>
        <time>2015-08-16T08:16:03Z</time>
      </trkpt>
      <trkpt lat="50.11533" lon="5.55579">
        <ele>428</ele>
        <time>2015-08-16T08:16:08Z</time>
      </trkpt>
      <trkpt lat="50.11541" lon="5.55582">
        <ele>429</ele>
        <time>2015-08-16T08:16:14Z</time>
      </trkpt>
      <trkpt lat="50.11547" lon="5.55584">
        <ele>429</ele>
        <time>2015-08-16T08:16:19Z</time>
      </trkpt>
      <trkpt lat="50.11554" lon="5.55587">
        <ele>429</ele>
        <time>2015-08-16T08:16:25Z</time>
      </trkpt>
      <trkpt lat="50.11558" lon="5.55589">
        <ele>430</ele>
        <time>2015-08-16T08:16:30Z</time>
      </trkpt>
      <trkpt lat="50.11563" lon="5.5559">
        <ele>430</ele>
        <time>2015-08-16T08:16:35Z</time>
      </trkpt>
      <trkpt lat="50.11571" lon="5.55592">
        <ele>430</ele>
        <time>2015-08-16T08:16:41Z</time>
      </trkpt>
      <trkpt lat="50.11576" lon="5.55594">
        <ele>430</ele>
        <time>2015-08-16T08:16:46Z</time>
      </trkpt>
      <trkpt lat="50.11577" lon="5.55594">
        <ele>431</ele>
        <time>2015-08-16T08:16:52Z</time>
      </trkpt>
      <trkpt lat="50.11583" lon="5.55594">
        <ele>430</ele>
        <time>2015-08-16T08:16:58Z</time>
      </trkpt>
      <trkpt lat="50.11584" lon="5.55594">
        <ele>430</ele>
        <time>2015-08-16T08:17:03Z</time>
      </trkpt>
      <trkpt lat="50.11585" lon="5.55593">
        <ele>431</ele>
        <time>2015-08-16T08:17:09Z</time>
      </trkpt>
      <trkpt lat="50.11588" lon="5.55593">
        <ele>431</ele>
        <time>2015-08-16T08:17:14Z</time>
      </trkpt>
      <trkpt lat="50.11595" lon="5.55595">
        <ele>430</ele>
        <time>2015-08-16T08:17:20Z</time>
      </trkpt>
      <trkpt lat="50.11601" lon="5.55597">
        <ele>431</ele>
        <time>2015-08-16T08:17:26Z</time>
      </trkpt>
      <trkpt lat="50.11607" lon="5.55598">
        <ele>431</ele>
        <time>2015-08-16T08:17:32Z</time>
      </trkpt>
      <trkpt lat="50.11613" lon="5.556">
        <ele>431</ele>
        <time>2015-08-16T08:17:38Z</time>
      </trkpt>
      <trkpt lat="50.11618" lon="5.55601">
        <ele>432</ele>
        <time>2015-08-16T08:17:44Z</time>
      </trkpt>
      <trkpt lat="50.11623" lon="5.55603">
        <ele>432</ele>
        <time>2015-08-16T08:17:49Z</time>
      </trkpt>
      <trkpt lat="50.11629" lon="5.55604">
        <ele>432</ele>
        <time>2015-08-16T08:17:55Z</time>
      </trkpt>
      <trkpt lat="50.11635" lon="5.55605">
        <ele>432</ele>
        <time>2015-08-16T08:18:01Z</time>
      </trkpt>
      <trkpt lat="50.11641" lon="5.55607">
        <ele>433</ele>
        <time>2015-08-16T08:18:07Z</time>
      </trkpt>
      <trkpt lat="50.11644" lon="5.55609">
        <ele>433</ele>
        <time>2015-08-16T08:18:13Z</time>
      </trkpt>
      <trkpt lat="50.11642" lon="5.55612">
        <ele>433</ele>
        <time>2015-08-16T08:18:20Z</time>
      </trkpt>
      <trkpt lat="50.11643" lon="5.55612">
        <ele>433</ele>
        <time>2015-08-16T08:18:26Z</time>
      </trkpt>
      <trkpt lat="50.11647" lon="5.55611">
        <ele>433</ele>
        <time>2015-08-16T08:18:31Z</time>
      </trkpt>
      <trkpt lat="50.11654" lon="5.55612">
        <ele>434</ele>
        <time>2015-08-16T08:18:37Z</time>
      </trkpt>
      <trkpt lat="50.11662" lon="5.55613">
        <ele>434</ele>
        <time>2015-08-16T08:18:43Z</time>
      </trkpt>
      <trkpt lat="50.11668" lon="5.55613">
        <ele>434</ele>
        <time>2015-08-16T08:18:49Z</time>
      </trkpt>
      <trkpt lat="50.11676" lon="5.55615">
        <ele>434</ele>
        <time>2015-08-16T08:18:55Z</time>
      </trkpt>
      <trkpt lat="50.11683" lon="5.55616">
        <ele>434</ele>
        <time>2015-08-16T08:19:00Z</time>
      </trkpt>
      <trkpt lat="50.1169" lon="5.55618">
        <ele>435</ele>
        <time>2015-08-16T08:19:06Z</time>
      </trkpt>
      <trkpt lat="50.11697" lon="5.55619">
        <ele>434</ele>
        <time>2015-08-16T08:19:12Z</time>
      </trkpt>
      <trkpt lat="50.11702" lon="5.55618">
        <ele>433</ele>
        <time>2015-08-16T08:19:17Z</time>
      </trkpt>
      <trkpt lat="50.11707" lon="5.55622">
        <ele>432</ele>
        <time>2015-08-16T08:19:22Z</time>
      </trkpt>
      <trkpt lat="50.11712" lon="5.5563">
        <ele>431</ele>
        <time>2015-08-16T08:19:28Z</time>
      </trkpt>
      <trkpt lat="50.11714" lon="5.55641">
        <ele>432</ele>
        <time>2015-08-16T08:19:34Z</time>
      </trkpt>
      <trkpt lat="50.11716" lon="5.55651">
        <ele>432</ele>
        <time>2015-08-16T08:19:39Z</time>
      </trkpt>
      <trkpt lat="50.11718" lon="5.55663">
        <ele>433</ele>
        <time>2015-08-16T08:19:45Z</time>
      </trkpt>
      <trkpt lat="50.11719" lon="5.55674">
        <ele>433</ele>
        <time>2015-08-16T08:19:50Z</time>
      </trkpt>
      <trkpt lat="50.11721" lon="5.55683">
        <ele>433</ele>
        <time>2015-08-16T08:19:55Z</time>
      </trkpt>
      <trkpt lat="50.11723" lon="5.55695">
        <ele>434</ele>
        <time>2015-08-16T08:20:01Z</time>
      </trkpt>
      <trkpt lat="50.11725" lon="5.55705">
        <ele>434</ele>
        <time>2015-08-16T08:20:07Z</time>
      </trkpt>
      <trkpt lat="50.11726" lon="5.55717">
        <ele>434</ele>
        <time>2015-08-16T08:20:13Z</time>
      </trkpt>
      <trkpt lat="50.11726" lon="5.55727">
        <ele>435</ele>
        <time>2015-08-16T08:20:18Z</time>
      </trkpt>
      <trkpt lat="50.11727" lon="5.55738">
        <ele>435</ele>
        <time>2015-08-16T08:20:24Z</time>
      </trkpt>
      <trkpt lat="50.11729" lon="5.5575">
        <ele>435</ele>
        <time>2015-08-16T08:20:30Z</time>
      </trkpt>
      <trkpt lat="50.11731" lon="5.55761">
        <ele>435</ele>
        <time>2015-08-16T08:20:36Z</time>
      </trkpt>
      <trkpt lat="50.11731" lon="5.55772">
        <ele>436</ele>
        <time>2015-08-16T08:20:42Z</time>
      </trkpt>
      <trkpt lat="50.11734" lon="5.55783">
        <ele>437</ele>
        <time>2015-08-16T08:20:48Z</time>
      </trkpt>
      <trkpt lat="50.11735" lon="5.55793">
        <ele>438</ele>
        <time>2015-08-16T08:20:54Z</time>
      </trkpt>
      <trkpt lat="50.11736" lon="5.55802">
        <ele>437</ele>
        <time>2015-08-16T08:20:59Z</time>
      </trkpt>
      <trkpt lat="50.11738" lon="5.55811">
        <ele>438</ele>
        <time>2015-08-16T08:21:05Z</time>
      </trkpt>
      <trkpt lat="50.11742" lon="5.55821">
        <ele>439</ele>
        <time>2015-08-16T08:21:11Z</time>
      </trkpt>
      <trkpt lat="50.11744" lon="5.55828">
        <ele>439</ele>
        <time>2015-08-16T08:21:16Z</time>
      </trkpt>
      <trkpt lat="50.11749" lon="5.55836">
        <ele>439</ele>
        <time>2015-08-16T08:21:22Z</time>
      </trkpt>
      <trkpt lat="50.11753" lon="5.55843">
        <ele>439</ele>
        <time>2015-08-16T08:21:27Z</time>
      </trkpt>
      <trkpt lat="50.11759" lon="5.55852">
        <ele>440</ele>
        <time>2015-08-16T08:21:33Z</time>
      </trkpt>
      <trkpt lat="50.11763" lon="5.55859">
        <ele>440</ele>
        <time>2015-08-16T08:21:38Z</time>
      </trkpt>
      <trkpt lat="50.11768" lon="5.55867">
        <ele>440</ele>
        <time>2015-08-16T08:21:44Z</time>
      </trkpt>
      <trkpt lat="50.11773" lon="5.55873">
        <ele>441</ele>
        <time>2015-08-16T08:21:49Z</time>
      </trkpt>
      <trkpt lat="50.11775" lon="5.55882">
        <ele>441</ele>
        <time>2015-08-16T08:21:55Z</time>
      </trkpt>
      <trkpt lat="50.11779" lon="5.55889">
        <ele>442</ele>
        <time>2015-08-16T08:22:00Z</time>
      </trkpt>
      <trkpt lat="50.11784" lon="5.55896">
        <ele>442</ele>
        <time>2015-08-16T08:22:06Z</time>
      </trkpt>
      <trkpt lat="50.11787" lon="5.55906">
        <ele>443</ele>
        <time>2015-08-16T08:22:12Z</time>
      </trkpt>
      <trkpt lat="50.11789" lon="5.55915">
        <ele>443</ele>
        <time>2015-08-16T08:22:18Z</time>
      </trkpt>
      <trkpt lat="50.11794" lon="5.55924">
        <ele>444</ele>
        <time>2015-08-16T08:22:24Z</time>
      </trkpt>
      <trkpt lat="50.11796" lon="5.55936">
        <ele>444</ele>
        <time>2015-08-16T08:22:30Z</time>
      </trkpt>
      <trkpt lat="50.11797" lon="5.55947">
        <ele>445</ele>
        <time>2015-08-16T08:22:36Z</time>
      </trkpt>
      <trkpt lat="50.11797" lon="5.55958">
        <ele>445</ele>
        <time>2015-08-16T08:22:42Z</time>
      </trkpt>
      <trkpt lat="50.11798" lon="5.55969">
        <ele>446</ele>
        <time>2015-08-16T08:22:48Z</time>
      </trkpt>
      <trkpt lat="50.11798" lon="5.5598">
        <ele>446</ele>
        <time>2015-08-16T08:22:54Z</time>
      </trkpt>
      <trkpt lat="50.118" lon="5.5599">
        <ele>447</ele>
        <time>2015-08-16T08:22:59Z</time>
      </trkpt>
      <trkpt lat="50.118" lon="5.55999">
        <ele>447</ele>
        <time>2015-08-16T08:23:04Z</time>
      </trkpt>
      <trkpt lat="50.11802" lon="5.56008">
        <ele>447</ele>
        <time>2015-08-16T08:23:09Z</time>
      </trkpt>
      <trkpt lat="50.11803" lon="5.56018">
        <ele>447</ele>
        <time>2015-08-16T08:23:15Z</time>
      </trkpt>
      <trkpt lat="50.11806" lon="5.56029">
        <ele>448</ele>
        <time>2015-08-16T08:23:21Z</time>
      </trkpt>
      <trkpt lat="50.11807" lon="5.56039">
        <ele>448</ele>
        <time>2015-08-16T08:23:26Z</time>
      </trkpt>
      <trkpt lat="50.11806" lon="5.56047">
        <ele>448</ele>
        <time>2015-08-16T08:23:31Z</time>
      </trkpt>
      <trkpt lat="50.11808" lon="5.56059">
        <ele>448</ele>
        <time>2015-08-16T08:23:37Z</time>
      </trkpt>
      <trkpt lat="50.11808" lon="5.56068">
        <ele>448</ele>
        <time>2015-08-16T08:23:42Z</time>
      </trkpt>
      <trkpt lat="50.11809" lon="5.56078">
        <ele>448</ele>
        <time>2015-08-16T08:23:48Z</time>
      </trkpt>
      <trkpt lat="50.11811" lon="5.56087">
        <ele>449</ele>
        <time>2015-08-16T08:23:53Z</time>
      </trkpt>
      <trkpt lat="50.11814" lon="5.56098">
        <ele>449</ele>
        <time>2015-08-16T08:23:59Z</time>
      </trkpt>
      <trkpt lat="50.1182" lon="5.56106">
        <ele>449</ele>
        <time>2015-08-16T08:24:05Z</time>
      </trkpt>
      <trkpt lat="50.11827" lon="5.56112">
        <ele>449</ele>
        <time>2015-08-16T08:24:11Z</time>
      </trkpt>
      <trkpt lat="50.11833" lon="5.56119">
        <ele>449</ele>
        <time>2015-08-16T08:24:17Z</time>
      </trkpt>
      <trkpt lat="50.11837" lon="5.56127">
        <ele>449</ele>
        <time>2015-08-16T08:24:22Z</time>
      </trkpt>
      <trkpt lat="50.1184" lon="5.56137">
        <ele>449</ele>
        <time>2015-08-16T08:24:28Z</time>
      </trkpt>
      <trkpt lat="50.11845" lon="5.56146">
        <ele>448</ele>
        <time>2015-08-16T08:24:34Z</time>
      </trkpt>
      <trkpt lat="50.1185" lon="5.56157">
        <ele>447</ele>
        <time>2015-08-16T08:24:40Z</time>
      </trkpt>
      <trkpt lat="50.11853" lon="5.56166">
        <ele>447</ele>
        <time>2015-08-16T08:24:46Z</time>
      </trkpt>
      <trkpt lat="50.11858" lon="5.56175">
        <ele>447</ele>
        <time>2015-08-16T08:24:52Z</time>
      </trkpt>
      <trkpt lat="50.11861" lon="5.56184">
        <ele>447</ele>
        <time>2015-08-16T08:24:57Z</time>
      </trkpt>
      <trkpt lat="50.11865" lon="5.56193">
        <ele>447</ele>
        <time>2015-08-16T08:25:03Z</time>
      </trkpt>
      <trkpt lat="50.11869" lon="5.56202">
        <ele>447</ele>
        <time>2015-08-16T08:25:08Z</time>
      </trkpt>
      <trkpt lat="50.11873" lon="5.56208">
        <ele>447</ele>
        <time>2015-08-16T08:25:13Z</time>
      </trkpt>
      <trkpt lat="50.11878" lon="5.56217">
        <ele>447</ele>
        <time>2015-08-16T08:25:19Z</time>
      </trkpt>
      <trkpt lat="50.11883" lon="5.56226">
        <ele>447</ele>
        <time>2015-08-16T08:25:25Z</time>
      </trkpt>
      <trkpt lat="50.11888" lon="5.56233">
        <ele>447</ele>
        <time>2015-08-16T08:25:31Z</time>
      </trkpt>
      <trkpt lat="50.11893" lon="5.5624">
        <ele>447</ele>
        <time>2015-08-16T08:25:37Z</time>
      </trkpt>
      <trkpt lat="50.11898" lon="5.56246">
        <ele>447</ele>
        <time>2015-08-16T08:25:42Z</time>
      </trkpt>
      <trkpt lat="50.11901" lon="5.56246">
        <ele>447</ele>
        <time>2015-08-16T08:25:48Z</time>
      </trkpt>
      <trkpt lat="50.119" lon="5.56247">
        <ele>446</ele>
        <time>2015-08-16T08:25:53Z</time>
      </trkpt>
      <trkpt lat="50.119" lon="5.56248">
        <ele>446</ele>
        <time>2015-08-16T08:25:59Z</time>
      </trkpt>
      <trkpt lat="50.11901" lon="5.56247">
        <ele>446</ele>
        <time>2015-08-16T08:26:04Z</time>
      </trkpt>
      <trkpt lat="50.11901" lon="5.56246">
        <ele>447</ele>
        <time>2015-08-16T08:26:10Z</time>
      </trkpt>
      <trkpt lat="50.11902" lon="5.56245">
        <ele>447</ele>
        <time>2015-08-16T08:26:16Z</time>
      </trkpt>
      <trkpt lat="50.11901" lon="5.56245">
        <ele>446</ele>
        <time>2015-08-16T08:26:22Z</time>
      </trkpt>
      <trkpt lat="50.11901" lon="5.56244">
        <ele>446</ele>
        <time>2015-08-16T08:26:27Z</time>
      </trkpt>
      <trkpt lat="50.11905" lon="5.56249">
        <ele>446</ele>
        <time>2015-08-16T08:26:33Z</time>
      </trkpt>
      <trkpt lat="50.11907" lon="5.56255">
        <ele>446</ele>
        <time>2015-08-16T08:26:39Z</time>
      </trkpt>
      <trkpt lat="50.11909" lon="5.5626">
        <ele>446</ele>
        <time>2015-08-16T08:26:45Z</time>
      </trkpt>
      <trkpt lat="50.1191" lon="5.56262">
        <ele>446</ele>
        <time>2015-08-16T08:26:50Z</time>
      </trkpt>
      <trkpt lat="50.11913" lon="5.56266">
        <ele>446</ele>
        <time>2015-08-16T08:26:56Z</time>
      </trkpt>
      <trkpt lat="50.11916" lon="5.56269">
        <ele>446</ele>
        <time>2015-08-16T08:27:01Z</time>
      </trkpt>
      <trkpt lat="50.11922" lon="5.56272">
        <ele>446</ele>
        <time>2015-08-16T08:27:06Z</time>
      </trkpt>
      <trkpt lat="50.1193" lon="5.56276">
        <ele>446</ele>
        <time>2015-08-16T08:27:12Z</time>
      </trkpt>
      <trkpt lat="50.11936" lon="5.56281">
        <ele>445</ele>
        <time>2015-08-16T08:27:17Z</time>
      </trkpt>
      <trkpt lat="50.11943" lon="5.56288">
        <ele>446</ele>
        <time>2015-08-16T08:27:23Z</time>
      </trkpt>
      <trkpt lat="50.11948" lon="5.56294">
        <ele>446</ele>
        <time>2015-08-16T08:27:28Z</time>
      </trkpt>
      <trkpt lat="50.11954" lon="5.56303">
        <ele>445</ele>
        <time>2015-08-16T08:27:34Z</time>
      </trkpt>
      <trkpt lat="50.11958" lon="5.56316">
        <ele>445</ele>
        <time>2015-08-16T08:27:40Z</time>
      </trkpt>
      <trkpt lat="50.11963" lon="5.56328">
        <ele>446</ele>
        <time>2015-08-16T08:27:46Z</time>
      </trkpt>
      <trkpt lat="50.11967" lon="5.56341">
        <ele>446</ele>
        <time>2015-08-16T08:27:52Z</time>
      </trkpt>
      <trkpt lat="50.1197" lon="5.5635">
        <ele>446</ele>
        <time>2015-08-16T08:27:57Z</time>
      </trkpt>
      <trkpt lat="50.11972" lon="5.56363">
        <ele>446</ele>
        <time>2015-08-16T08:28:03Z</time>
      </trkpt>
      <trkpt lat="50.11975" lon="5.56373">
        <ele>445</ele>
        <time>2015-08-16T08:28:08Z</time>
      </trkpt>
      <trkpt lat="50.11979" lon="5.56383">
        <ele>445</ele>
        <time>2015-08-16T08:28:14Z</time>
      </trkpt>
      <trkpt lat="50.11984" lon="5.56392">
        <ele>445</ele>
        <time>2015-08-16T08:28:20Z</time>
      </trkpt>
      <trkpt lat="50.11988" lon="5.56399">
        <ele>445</ele>
        <time>2015-08-16T08:28:25Z</time>
      </trkpt>
      <trkpt lat="50.11993" lon="5.5641">
        <ele>445</ele>
        <time>2015-08-16T08:28:31Z</time>
      </trkpt>
      <trkpt lat="50.11998" lon="5.56418">
        <ele>445</ele>
        <time>2015-08-16T08:28:36Z</time>
      </trkpt>
      <trkpt lat="50.12003" lon="5.56427">
        <ele>444</ele>
        <time>2015-08-16T08:28:42Z</time>
      </trkpt>
      <trkpt lat="50.12008" lon="5.56435">
        <ele>444</ele>
        <time>2015-08-16T08:28:48Z</time>
      </trkpt>
      <trkpt lat="50.12011" lon="5.56441">
        <ele>445</ele>
        <time>2015-08-16T08:28:53Z</time>
      </trkpt>
      <trkpt lat="50.12014" lon="5.56446">
        <ele>445</ele>
        <time>2015-08-16T08:28:59Z</time>
      </trkpt>
      <trkpt lat="50.12019" lon="5.56457">
        <ele>444</ele>
        <time>2015-08-16T08:29:05Z</time>
      </trkpt>
      <trkpt lat="50.1202" lon="5.56459">
        <ele>444</ele>
        <time>2015-08-16T08:29:12Z</time>
      </trkpt>
      <trkpt lat="50.12024" lon="5.56465">
        <ele>444</ele>
        <time>2015-08-16T08:29:18Z</time>
      </trkpt>
      <trkpt lat="50.12028" lon="5.56473">
        <ele>443</ele>
        <time>2015-08-16T08:29:23Z</time>
      </trkpt>
      <trkpt lat="50.12034" lon="5.56483">
        <ele>443</ele>
        <time>2015-08-16T08:29:29Z</time>
      </trkpt>
      <trkpt lat="50.12039" lon="5.5649">
        <ele>443</ele>
        <time>2015-08-16T08:29:34Z</time>
      </trkpt>
      <trkpt lat="50.12046" lon="5.56497">
        <ele>443</ele>
        <time>2015-08-16T08:29:40Z</time>
      </trkpt>
      <trkpt lat="50.12054" lon="5.56503">
        <ele>443</ele>
        <time>2015-08-16T08:29:46Z</time>
      </trkpt>
      <trkpt lat="50.12061" lon="5.56508">
        <ele>443</ele>
        <time>2015-08-16T08:29:52Z</time>
      </trkpt>
      <trkpt lat="50.12069" lon="5.56513">
        <ele>444</ele>
        <time>2015-08-16T08:29:58Z</time>
      </trkpt>
      <trkpt lat="50.12074" lon="5.56517">
        <ele>444</ele>
        <time>2015-08-16T08:30:03Z</time>
      </trkpt>
      <trkpt lat="50.12081" lon="5.56523">
        <ele>444</ele>
        <time>2015-08-16T08:30:09Z</time>
      </trkpt>
      <trkpt lat="50.12088" lon="5.56529">
        <ele>444</ele>
        <time>2015-08-16T08:30:15Z</time>
      </trkpt>
      <trkpt lat="50.12094" lon="5.56534">
        <ele>443</ele>
        <time>2015-08-16T08:30:20Z</time>
      </trkpt>
      <trkpt lat="50.12099" lon="5.56539">
        <ele>442</ele>
        <time>2015-08-16T08:30:26Z</time>
      </trkpt>
      <trkpt lat="50.12103" lon="5.56542">
        <ele>442</ele>
        <time>2015-08-16T08:30:31Z</time>
      </trkpt>
      <trkpt lat="50.12105" lon="5.56543">
        <ele>442</ele>
        <time>2015-08-16T08:30:36Z</time>
      </trkpt>
      <trkpt lat="50.12106" lon="5.56544">
        <ele>442</ele>
        <time>2015-08-16T08:30:41Z</time>
      </trkpt>
      <trkpt lat="50.12109" lon="5.56547">
        <ele>442</ele>
        <time>2015-08-16T08:30:48Z</time>
      </trkpt>
      <trkpt lat="50.12113" lon="5.56551">
        <ele>441</ele>
        <time>2015-08-16T08:30:53Z</time>
      </trkpt>
      <trkpt lat="50.1212" lon="5.56556">
        <ele>441</ele>
        <time>2015-08-16T08:30:59Z</time>
      </trkpt>
      <trkpt lat="50.12125" lon="5.56561">
        <ele>440</ele>
        <time>2015-08-16T08:31:04Z</time>
      </trkpt>
      <trkpt lat="50.12133" lon="5.56566">
        <ele>440</ele>
        <time>2015-08-16T08:31:10Z</time>
      </trkpt>
      <trkpt lat="50.12139" lon="5.56571">
        <ele>440</ele>
        <time>2015-08-16T08:31:16Z</time>
      </trkpt>
      <trkpt lat="50.12146" lon="5.56577">
        <ele>439</ele>
        <time>2015-08-16T08:31:22Z</time>
      </trkpt>
      <trkpt lat="50.12152" lon="5.56581">
        <ele>438</ele>
        <time>2015-08-16T08:31:28Z</time>
      </trkpt>
      <trkpt lat="50.12158" lon="5.56586">
        <ele>438</ele>
        <time>2015-08-16T08:31:33Z</time>
      </trkpt>
      <trkpt lat="50.12164" lon="5.5659">
        <ele>437</ele>
        <time>2015-08-16T08:31:38Z</time>
      </trkpt>
      <trkpt lat="50.12171" lon="5.56593">
        <ele>437</ele>
        <time>2015-08-16T08:31:44Z</time>
      </trkpt>
      <trkpt lat="50.12177" lon="5.56596">
        <ele>436</ele>
        <time>2015-08-16T08:31:49Z</time>
      </trkpt>
      <trkpt lat="50.12185" lon="5.56598">
        <ele>436</ele>
        <time>2015-08-16T08:31:55Z</time>
      </trkpt>
      <trkpt lat="50.12191" lon="5.56599">
        <ele>435</ele>
        <time>2015-08-16T08:32:00Z</time>
      </trkpt>
      <trkpt lat="50.12198" lon="5.566">
        <ele>435</ele>
        <time>2015-08-16T08:32:06Z</time>
      </trkpt>
      <trkpt lat="50.12205" lon="5.56602">
        <ele>435</ele>
        <time>2015-08-16T08:32:12Z</time>
      </trkpt>
      <trkpt lat="50.12212" lon="5.56602">
        <ele>434</ele>
        <time>2015-08-16T08:32:18Z</time>
      </trkpt>
      <trkpt lat="50.12217" lon="5.56604">
        <ele>433</ele>
        <time>2015-08-16T08:32:23Z</time>
      </trkpt>
      <trkpt lat="50.12224" lon="5.56608">
        <ele>433</ele>
        <time>2015-08-16T08:32:29Z</time>
      </trkpt>
      <trkpt lat="50.1223" lon="5.56612">
        <ele>433</ele>
        <time>2015-08-16T08:32:35Z</time>
      </trkpt>
      <trkpt lat="50.12236" lon="5.56616">
        <ele>432</ele>
        <time>2015-08-16T08:32:40Z</time>
      </trkpt>
      <trkpt lat="50.12239" lon="5.56622">
        <ele>432</ele>
        <time>2015-08-16T08:32:45Z</time>
      </trkpt>
      <trkpt lat="50.12243" lon="5.56626">
        <ele>431</ele>
        <time>2015-08-16T08:32:50Z</time>
      </trkpt>
      <trkpt lat="50.12249" lon="5.56631">
        <ele>430</ele>
        <time>2015-08-16T08:32:56Z</time>
      </trkpt>
      <trkpt lat="50.12255" lon="5.56638">
        <ele>430</ele>
        <time>2015-08-16T08:33:02Z</time>
      </trkpt>
      <trkpt lat="50.12261" lon="5.56643">
        <ele>430</ele>
        <time>2015-08-16T08:33:07Z</time>
      </trkpt>
      <trkpt lat="50.12266" lon="5.56649">
        <ele>429</ele>
        <time>2015-08-16T08:33:12Z</time>
      </trkpt>
      <trkpt lat="50.12271" lon="5.56656">
        <ele>429</ele>
        <time>2015-08-16T08:33:18Z</time>
      </trkpt>
      <trkpt lat="50.12275" lon="5.56662">
        <ele>429</ele>
        <time>2015-08-16T08:33:23Z</time>
      </trkpt>
      <trkpt lat="50.1228" lon="5.5667">
        <ele>428</ele>
        <time>2015-08-16T08:33:29Z</time>
      </trkpt>
      <trkpt lat="50.12283" lon="5.56676">
        <ele>428</ele>
        <time>2015-08-16T08:33:34Z</time>
      </trkpt>
      <trkpt lat="50.12289" lon="5.56684">
        <ele>428</ele>
        <time>2015-08-16T08:33:40Z</time>
      </trkpt>
      <trkpt lat="50.12294" lon="5.56692">
        <ele>428</ele>
        <time>2015-08-16T08:33:46Z</time>
      </trkpt>
      <trkpt lat="50.12299" lon="5.56699">
        <ele>428</ele>
        <time>2015-08-16T08:33:51Z</time>
      </trkpt>
      <trkpt lat="50.12304" lon="5.56706">
        <ele>428</ele>
        <time>2015-08-16T08:33:56Z</time>
      </trkpt>
      <trkpt lat="50.1231" lon="5.56714">
        <ele>427</ele>
        <time>2015-08-16T08:34:02Z</time>
      </trkpt>
      <trkpt lat="50.12315" lon="5.56722">
        <ele>427</ele>
        <time>2015-08-16T08:34:08Z</time>
      </trkpt>
      <trkpt lat="50.1232" lon="5.5673">
        <ele>427</ele>
        <time>2015-08-16T08:34:13Z</time>
      </trkpt>
      <trkpt lat="50.12324" lon="5.5674">
        <ele>427</ele>
        <time>2015-08-16T08:34:19Z</time>
      </trkpt>
      <trkpt lat="50.12328" lon="5.56748">
        <ele>427</ele>
        <time>2015-08-16T08:34:24Z</time>
      </trkpt>
      <trkpt lat="50.12331" lon="5.56756">
        <ele>427</ele>
        <time>2015-08-16T08:34:29Z</time>
      </trkpt>
      <trkpt lat="50.12335" lon="5.56764">
        <ele>427</ele>
        <time>2015-08-16T08:34:34Z</time>
      </trkpt>
      <trkpt lat="50.12338" lon="5.56773">
        <ele>426</ele>
        <time>2015-08-16T08:34:39Z</time>
      </trkpt>
      <trkpt lat="50.12342" lon="5.56783">
        <ele>427</ele>
        <time>2015-08-16T08:34:45Z</time>
      </trkpt>
      <trkpt lat="50.12345" lon="5.56791">
        <ele>427</ele>
        <time>2015-08-16T08:34:50Z</time>
      </trkpt>
      <trkpt lat="50.12348" lon="5.568">
        <ele>427</ele>
        <time>2015-08-16T08:34:55Z</time>
      </trkpt>
      <trkpt lat="50.12352" lon="5.5681">
        <ele>427</ele>
        <time>2015-08-16T08:35:01Z</time>
      </trkpt>
      <trkpt lat="50.12355" lon="5.56818">
        <ele>427</ele>
        <time>2015-08-16T08:35:06Z</time>
      </trkpt>
      <trkpt lat="50.12358" lon="5.56827">
        <ele>427</ele>
        <time>2015-08-16T08:35:12Z</time>
      </trkpt>
      <trkpt lat="50.12361" lon="5.56838">
        <ele>427</ele>
        <time>2015-08-16T08:35:18Z</time>
      </trkpt>
      <trkpt lat="50.12365" lon="5.56847">
        <ele>428</ele>
        <time>2015-08-16T08:35:24Z</time>
      </trkpt>
      <trkpt lat="50.12369" lon="5.56856">
        <ele>428</ele>
        <time>2015-08-16T08:35:29Z</time>
      </trkpt>
      <trkpt lat="50.12373" lon="5.56865">
        <ele>428</ele>
        <time>2015-08-16T08:35:34Z</time>
      </trkpt>
      <trkpt lat="50.12375" lon="5.56874">
        <ele>428</ele>
        <time>2015-08-16T08:35:40Z</time>
      </trkpt>
      <trkpt lat="50.12377" lon="5.56881">
        <ele>428</ele>
        <time>2015-08-16T08:35:45Z</time>
      </trkpt>
      <trkpt lat="50.12378" lon="5.5689">
        <ele>428</ele>
        <time>2015-08-16T08:35:50Z</time>
      </trkpt>
      <trkpt lat="50.12382" lon="5.56899">
        <ele>429</ele>
        <time>2015-08-16T08:35:56Z</time>
      </trkpt>
      <trkpt lat="50.12384" lon="5.56907">
        <ele>429</ele>
        <time>2015-08-16T08:36:01Z</time>
      </trkpt>
      <trkpt lat="50.12386" lon="5.56916">
        <ele>429</ele>
        <time>2015-08-16T08:36:07Z</time>
      </trkpt>
      <trkpt lat="50.1239" lon="5.56924">
        <ele>429</ele>
        <time>2015-08-16T08:36:13Z</time>
      </trkpt>
      <trkpt lat="50.12394" lon="5.56931">
        <ele>429</ele>
        <time>2015-08-16T08:36:18Z</time>
      </trkpt>
      <trkpt lat="50.12397" lon="5.56939">
        <ele>430</ele>
        <time>2015-08-16T08:36:24Z</time>
      </trkpt>
      <trkpt lat="50.12397" lon="5.56943">
        <ele>430</ele>
        <time>2015-08-16T08:36:30Z</time>
      </trkpt>
      <trkpt lat="50.12399" lon="5.56949">
        <ele>430</ele>
        <time>2015-08-16T08:36:36Z</time>
      </trkpt>
      <trkpt lat="50.124" lon="5.56957">
        <ele>430</ele>
        <time>2015-08-16T08:36:42Z</time>
      </trkpt>
      <trkpt lat="50.12401" lon="5.56966">
        <ele>430</ele>
        <time>2015-08-16T08:36:47Z</time>
      </trkpt>
      <trkpt lat="50.12404" lon="5.56975">
        <ele>430</ele>
        <time>2015-08-16T08:36:53Z</time>
      </trkpt>
      <trkpt lat="50.12408" lon="5.5698">
        <ele>431</ele>
        <time>2015-08-16T08:36:58Z</time>
      </trkpt>
      <trkpt lat="50.12414" lon="5.56985">
        <ele>431</ele>
        <time>2015-08-16T08:37:03Z</time>
      </trkpt>
      <trkpt lat="50.1242" lon="5.56991">
        <ele>431</ele>
        <time>2015-08-16T08:37:09Z</time>
      </trkpt>
      <trkpt lat="50.12426" lon="5.56996">
        <ele>432</ele>
        <time>2015-08-16T08:37:14Z</time>
      </trkpt>
      <trkpt lat="50.12433" lon="5.57002">
        <ele>432</ele>
        <time>2015-08-16T08:37:20Z</time>
      </trkpt>
      <trkpt lat="50.12439" lon="5.57001">
        <ele>433</ele>
        <time>2015-08-16T08:37:26Z</time>
      </trkpt>
      <trkpt lat="50.12443" lon="5.56994">
        <ele>433</ele>
        <time>2015-08-16T08:37:32Z</time>
      </trkpt>
      <trkpt lat="50.12445" lon="5.56987">
        <ele>433</ele>
        <time>2015-08-16T08:37:37Z</time>
      </trkpt>
      <trkpt lat="50.12448" lon="5.56978">
        <ele>433</ele>
        <time>2015-08-16T08:37:43Z</time>
      </trkpt>
      <trkpt lat="50.1245" lon="5.56969">
        <ele>433</ele>
        <time>2015-08-16T08:37:49Z</time>
      </trkpt>
      <trkpt lat="50.12449" lon="5.56968">
        <ele>433</ele>
        <time>2015-08-16T08:37:54Z</time>
      </trkpt>
      <trkpt lat="50.12451" lon="5.5696">
        <ele>434</ele>
        <time>2015-08-16T08:38:00Z</time>
      </trkpt>
      <trkpt lat="50.12452" lon="5.56952">
        <ele>434</ele>
        <time>2015-08-16T08:38:05Z</time>
      </trkpt>
      <trkpt lat="50.12453" lon="5.56941">
        <ele>434</ele>
        <time>2015-08-16T08:38:11Z</time>
      </trkpt>
      <trkpt lat="50.12454" lon="5.56931">
        <ele>434</ele>
        <time>2015-08-16T08:38:17Z</time>
      </trkpt>
      <trkpt lat="50.12455" lon="5.5692">
        <ele>434</ele>
        <time>2015-08-16T08:38:23Z</time>
      </trkpt>
      <trkpt lat="50.12456" lon="5.56911">
        <ele>433</ele>
        <time>2015-08-16T08:38:28Z</time>
      </trkpt>
      <trkpt lat="50.12458" lon="5.56901">
        <ele>434</ele>
        <time>2015-08-16T08:38:34Z</time>
      </trkpt>
      <trkpt lat="50.12459" lon="5.56896">
        <ele>434</ele>
        <time>2015-08-16T08:38:40Z</time>
      </trkpt>
      <trkpt lat="50.12461" lon="5.56888">
        <ele>434</ele>
        <time>2015-08-16T08:38:46Z</time>
      </trkpt>
      <trkpt lat="50.12463" lon="5.56881">
        <ele>434</ele>
        <time>2015-08-16T08:38:51Z</time>
      </trkpt>
      <trkpt lat="50.12465" lon="5.56873">
        <ele>434</ele>
        <time>2015-08-16T08:38:57Z</time>
      </trkpt>
      <trkpt lat="50.12467" lon="5.56864">
        <ele>434</ele>
        <time>2015-08-16T08:39:03Z</time>
      </trkpt>
      <trkpt lat="50.12469" lon="5.56853">
        <ele>434</ele>
        <time>2015-08-16T08:39:09Z</time>
      </trkpt>
      <trkpt lat="50.12472" lon="5.56843">
        <ele>434</ele>
        <time>2015-08-16T08:39:15Z</time>
      </trkpt>
      <trkpt lat="50.12475" lon="5.56834">
        <ele>434</ele>
        <time>2015-08-16T08:39:20Z</time>
      </trkpt>
      <trkpt lat="50.12477" lon="5.56823">
        <ele>435</ele>
        <time>2015-08-16T08:39:26Z</time>
      </trkpt>
      <trkpt lat="50.1248" lon="5.56815">
        <ele>435</ele>
        <time>2015-08-16T08:39:31Z</time>
      </trkpt>
      <trkpt lat="50.12482" lon="5.56806">
        <ele>435</ele>
        <time>2015-08-16T08:39:36Z</time>
      </trkpt>
      <trkpt lat="50.12485" lon="5.56796">
        <ele>435</ele>
        <time>2015-08-16T08:39:42Z</time>
      </trkpt>
      <trkpt lat="50.12487" lon="5.56786">
        <ele>435</ele>
        <time>2015-08-16T08:39:48Z</time>
      </trkpt>
      <trkpt lat="50.12489" lon="5.56777">
        <ele>436</ele>
        <time>2015-08-16T08:39:53Z</time>
      </trkpt>
      <trkpt lat="50.12491" lon="5.56768">
        <ele>436</ele>
        <time>2015-08-16T08:39:58Z</time>
      </trkpt>
      <trkpt lat="50.12493" lon="5.56758">
        <ele>436</ele>
        <time>2015-08-16T08:40:04Z</time>
      </trkpt>
      <trkpt lat="50.12495" lon="5.56748">
        <ele>436</ele>
        <time>2015-08-16T08:40:10Z</time>
      </trkpt>
      <trkpt lat="50.12498" lon="5.56737">
        <ele>436</ele>
        <time>2015-08-16T08:40:16Z</time>
      </trkpt>
      <trkpt lat="50.12499" lon="5.56729">
        <ele>436</ele>
        <time>2015-08-16T08:40:21Z</time>
      </trkpt>
      <trkpt lat="50.12502" lon="5.56718">
        <ele>437</ele>
        <time>2015-08-16T08:40:27Z</time>
      </trkpt>
      <trkpt lat="50.12505" lon="5.56708">
        <ele>437</ele>
        <time>2015-08-16T08:40:33Z</time>
      </trkpt>
      <trkpt lat="50.12507" lon="5.567">
        <ele>436</ele>
        <time>2015-08-16T08:40:38Z</time>
      </trkpt>
      <trkpt lat="50.12509" lon="5.5669">
        <ele>437</ele>
        <time>2015-08-16T08:40:44Z</time>
      </trkpt>
      <trkpt lat="50.12511" lon="5.56681">
        <ele>437</ele>
        <time>2015-08-16T08:40:49Z</time>
      </trkpt>
      <trkpt lat="50.12513" lon="5.56672">
        <ele>437</ele>
        <time>2015-08-16T08:40:54Z</time>
      </trkpt>
      <trkpt lat="50.12516" lon="5.56661">
        <ele>437</ele>
        <time>2015-08-16T08:41:00Z</time>
      </trkpt>
      <trkpt lat="50.12518" lon="5.56652">
        <ele>437</ele>
        <time>2015-08-16T08:41:05Z</time>
      </trkpt>
      <trkpt lat="50.12521" lon="5.56643">
        <ele>437</ele>
        <time>2015-08-16T08:41:10Z</time>
      </trkpt>
      <trkpt lat="50.12522" lon="5.56634">
        <ele>437</ele>
        <time>2015-08-16T08:41:15Z</time>
      </trkpt>
      <trkpt lat="50.12524" lon="5.56626">
        <ele>437</ele>
        <time>2015-08-16T08:41:20Z</time>
      </trkpt>
      <trkpt lat="50.12526" lon="5.56615">
        <ele>438</ele>
        <time>2015-08-16T08:41:26Z</time>
      </trkpt>
      <trkpt lat="50.12527" lon="5.56605">
        <ele>438</ele>
        <time>2015-08-16T08:41:32Z</time>
      </trkpt>
      <trkpt lat="50.1253" lon="5.56595">
        <ele>438</ele>
        <time>2015-08-16T08:41:38Z</time>
      </trkpt>
      <trkpt lat="50.12532" lon="5.56587">
        <ele>438</ele>
        <time>2015-08-16T08:41:43Z</time>
      </trkpt>
      <trkpt lat="50.12534" lon="5.56576">
        <ele>438</ele>
        <time>2015-08-16T08:41:49Z</time>
      </trkpt>
      <trkpt lat="50.12538" lon="5.56566">
        <ele>438</ele>
        <time>2015-08-16T08:41:55Z</time>
      </trkpt>
      <trkpt lat="50.1254" lon="5.56555">
        <ele>438</ele>
        <time>2015-08-16T08:42:01Z</time>
      </trkpt>
      <trkpt lat="50.12542" lon="5.56544">
        <ele>438</ele>
        <time>2015-08-16T08:42:07Z</time>
      </trkpt>
      <trkpt lat="50.12544" lon="5.56533">
        <ele>438</ele>
        <time>2015-08-16T08:42:13Z</time>
      </trkpt>
      <trkpt lat="50.12545" lon="5.56525">
        <ele>437</ele>
        <time>2015-08-16T08:42:18Z</time>
      </trkpt>
      <trkpt lat="50.1255" lon="5.56514">
        <ele>437</ele>
        <time>2015-08-16T08:42:24Z</time>
      </trkpt>
      <trkpt lat="50.12555" lon="5.56506">
        <ele>437</ele>
        <time>2015-08-16T08:42:29Z</time>
      </trkpt>
      <trkpt lat="50.1256" lon="5.56495">
        <ele>437</ele>
        <time>2015-08-16T08:42:35Z</time>
      </trkpt>
      <trkpt lat="50.12566" lon="5.56485">
        <ele>437</ele>
        <time>2015-08-16T08:42:41Z</time>
      </trkpt>
      <trkpt lat="50.12568" lon="5.56476">
        <ele>437</ele>
        <time>2015-08-16T08:42:46Z</time>
      </trkpt>
      <trkpt lat="50.12572" lon="5.56468">
        <ele>436</ele>
        <time>2015-08-16T08:42:51Z</time>
      </trkpt>
      <trkpt lat="50.12575" lon="5.5646">
        <ele>437</ele>
        <time>2015-08-16T08:42:56Z</time>
      </trkpt>
      <trkpt lat="50.12578" lon="5.5645">
        <ele>436</ele>
        <time>2015-08-16T08:43:02Z</time>
      </trkpt>
      <trkpt lat="50.1258" lon="5.56443">
        <ele>436</ele>
        <time>2015-08-16T08:43:08Z</time>
      </trkpt>
      <trkpt lat="50.12583" lon="5.56436">
        <ele>436</ele>
        <time>2015-08-16T08:43:13Z</time>
      </trkpt>
      <trkpt lat="50.12584" lon="5.56428">
        <ele>436</ele>
        <time>2015-08-16T08:43:18Z</time>
      </trkpt>
      <trkpt lat="50.12585" lon="5.56419">
        <ele>435</ele>
        <time>2015-08-16T08:43:24Z</time>
      </trkpt>
      <trkpt lat="50.12587" lon="5.56409">
        <ele>435</ele>
        <time>2015-08-16T08:43:30Z</time>
      </trkpt>
      <trkpt lat="50.12588" lon="5.56401">
        <ele>435</ele>
        <time>2015-08-16T08:43:35Z</time>
      </trkpt>
      <trkpt lat="50.12591" lon="5.56393">
        <ele>435</ele>
        <time>2015-08-16T08:43:40Z</time>
      </trkpt>
      <trkpt lat="50.12594" lon="5.56385">
        <ele>435</ele>
        <time>2015-08-16T08:43:45Z</time>
      </trkpt>
      <trkpt lat="50.12598" lon="5.56375">
        <ele>435</ele>
        <time>2015-08-16T08:43:51Z</time>
      </trkpt>
      <trkpt lat="50.12602" lon="5.56368">
        <ele>435</ele>
        <time>2015-08-16T08:43:56Z</time>
      </trkpt>
      <trkpt lat="50.12606" lon="5.5636">
        <ele>434</ele>
        <time>2015-08-16T08:44:01Z</time>
      </trkpt>
      <trkpt lat="50.1261" lon="5.56351">
        <ele>434</ele>
        <time>2015-08-16T08:44:06Z</time>
      </trkpt>
      <trkpt lat="50.12612" lon="5.56343">
        <ele>433</ele>
        <time>2015-08-16T08:44:12Z</time>
      </trkpt>
      <trkpt lat="50.12612" lon="5.56338">
        <ele>434</ele>
        <time>2015-08-16T08:44:18Z</time>
      </trkpt>
      <trkpt lat="50.12612" lon="5.56333">
        <ele>434</ele>
        <time>2015-08-16T08:44:23Z</time>
      </trkpt>
      <trkpt lat="50.12614" lon="5.56325">
        <ele>433</ele>
        <time>2015-08-16T08:44:29Z</time>
      </trkpt>
      <trkpt lat="50.12616" lon="5.56319">
        <ele>433</ele>
        <time>2015-08-16T08:44:35Z</time>
      </trkpt>
      <trkpt lat="50.12618" lon="5.56313">
        <ele>433</ele>
        <time>2015-08-16T08:44:40Z</time>
      </trkpt>
      <trkpt lat="50.1262" lon="5.56305">
        <ele>433</ele>
        <time>2015-08-16T08:44:46Z</time>
      </trkpt>
      <trkpt lat="50.1262" lon="5.56296">
        <ele>433</ele>
        <time>2015-08-16T08:44:52Z</time>
      </trkpt>
      <trkpt lat="50.12619" lon="5.56287">
        <ele>433</ele>
        <time>2015-08-16T08:44:58Z</time>
      </trkpt>
      <trkpt lat="50.12621" lon="5.56278">
        <ele>432</ele>
        <time>2015-08-16T08:45:04Z</time>
      </trkpt>
      <trkpt lat="50.12619" lon="5.56272">
        <ele>432</ele>
        <time>2015-08-16T08:45:09Z</time>
      </trkpt>
      <trkpt lat="50.12619" lon="5.56263">
        <ele>432</ele>
        <time>2015-08-16T08:45:15Z</time>
      </trkpt>
      <trkpt lat="50.12619" lon="5.56259">
        <ele>432</ele>
        <time>2015-08-16T08:45:20Z</time>
      </trkpt>
      <trkpt lat="50.12621" lon="5.56255">
        <ele>432</ele>
        <time>2015-08-16T08:45:25Z</time>
      </trkpt>
      <trkpt lat="50.12623" lon="5.5625">
        <ele>431</ele>
        <time>2015-08-16T08:45:31Z</time>
      </trkpt>
      <trkpt lat="50.12624" lon="5.56244">
        <ele>431</ele>
        <time>2015-08-16T08:45:36Z</time>
      </trkpt>
      <trkpt lat="50.12627" lon="5.56237">
        <ele>431</ele>
        <time>2015-08-16T08:45:42Z</time>
      </trkpt>
      <trkpt lat="50.12632" lon="5.56231">
        <ele>431</ele>
        <time>2015-08-16T08:45:47Z</time>
      </trkpt>
      <trkpt lat="50.12635" lon="5.56224">
        <ele>431</ele>
        <time>2015-08-16T08:45:53Z</time>
      </trkpt>
      <trkpt lat="50.12638" lon="5.56217">
        <ele>431</ele>
        <time>2015-08-16T08:45:58Z</time>
      </trkpt>
      <trkpt lat="50.12642" lon="5.56213">
        <ele>431</ele>
        <time>2015-08-16T08:46:03Z</time>
      </trkpt>
      <trkpt lat="50.1265" lon="5.56208">
        <ele>430</ele>
        <time>2015-08-16T08:46:09Z</time>
      </trkpt>
      <trkpt lat="50.12651" lon="5.56202">
        <ele>430</ele>
        <time>2015-08-16T08:46:14Z</time>
      </trkpt>
      <trkpt lat="50.12654" lon="5.56191">
        <ele>430</ele>
        <time>2015-08-16T08:46:20Z</time>
      </trkpt>
      <trkpt lat="50.12655" lon="5.56185">
        <ele>431</ele>
        <time>2015-08-16T08:46:26Z</time>
      </trkpt>
      <trkpt lat="50.12661" lon="5.56182">
        <ele>431</ele>
        <time>2015-08-16T08:46:31Z</time>
      </trkpt>
      <trkpt lat="50.12668" lon="5.56178">
        <ele>431</ele>
        <time>2015-08-16T08:46:36Z</time>
      </trkpt>
      <trkpt lat="50.12669" lon="5.5617">
        <ele>430</ele>
        <time>2015-08-16T08:46:41Z</time>
      </trkpt>
      <trkpt lat="50.12668" lon="5.5616">
        <ele>430</ele>
        <time>2015-08-16T08:46:46Z</time>
      </trkpt>
      <trkpt lat="50.12666" lon="5.56151">
        <ele>430</ele>
        <time>2015-08-16T08:46:52Z</time>
      </trkpt>
      <trkpt lat="50.12666" lon="5.56142">
        <ele>430</ele>
        <time>2015-08-16T08:46:58Z</time>
      </trkpt>
      <trkpt lat="50.12665" lon="5.56136">
        <ele>429</ele>
        <time>2015-08-16T08:47:03Z</time>
      </trkpt>
      <trkpt lat="50.12668" lon="5.56129">
        <ele>429</ele>
        <time>2015-08-16T08:47:09Z</time>
      </trkpt>
      <trkpt lat="50.12674" lon="5.5612">
        <ele>429</ele>
        <time>2015-08-16T08:47:15Z</time>
      </trkpt>
      <trkpt lat="50.12677" lon="5.56111">
        <ele>429</ele>
        <time>2015-08-16T08:47:20Z</time>
      </trkpt>
      <trkpt lat="50.12678" lon="5.56103">
        <ele>429</ele>
        <time>2015-08-16T08:47:26Z</time>
      </trkpt>
      <trkpt lat="50.12677" lon="5.56096">
        <ele>429</ele>
        <time>2015-08-16T08:47:32Z</time>
      </trkpt>
      <trkpt lat="50.1268" lon="5.56089">
        <ele>429</ele>
        <time>2015-08-16T08:47:37Z</time>
      </trkpt>
      <trkpt lat="50.12685" lon="5.56081">
        <ele>429</ele>
        <time>2015-08-16T08:47:43Z</time>
      </trkpt>
      <trkpt lat="50.12687" lon="5.56077">
        <ele>429</ele>
        <time>2015-08-16T08:47:48Z</time>
      </trkpt>
      <trkpt lat="50.1269" lon="5.56072">
        <ele>428</ele>
        <time>2015-08-16T08:47:53Z</time>
      </trkpt>
      <trkpt lat="50.12689" lon="5.56064">
        <ele>428</ele>
        <time>2015-08-16T08:47:59Z</time>
      </trkpt>
      <trkpt lat="50.12689" lon="5.56056">
        <ele>428</ele>
        <time>2015-08-16T08:48:04Z</time>
      </trkpt>
      <trkpt lat="50.1269" lon="5.56049">
        <ele>428</ele>
        <time>2015-08-16T08:48:10Z</time>
      </trkpt>
      <trkpt lat="50.12692" lon="5.56044">
        <ele>428</ele>
        <time>2015-08-16T08:48:15Z</time>
      </trkpt>
      <trkpt lat="50.12694" lon="5.56042">
        <ele>428</ele>
        <time>2015-08-16T08:48:20Z</time>
      </trkpt>
      <trkpt lat="50.12693" lon="5.56039">
        <ele>428</ele>
        <time>2015-08-16T08:48:26Z</time>
      </trkpt>
      <trkpt lat="50.12689" lon="5.56036">
        <ele>428</ele>
        <time>2015-08-16T08:48:32Z</time>
      </trkpt>
      <trkpt lat="50.12684" lon="5.56033">
        <ele>428</ele>
        <time>2015-08-16T08:48:37Z</time>
      </trkpt>
      <trkpt lat="50.12682" lon="5.56032">
        <ele>428</ele>
        <time>2015-08-16T08:48:43Z</time>
      </trkpt>
      <trkpt lat="50.12682" lon="5.56029">
        <ele>428</ele>
        <time>2015-08-16T08:48:49Z</time>
      </trkpt>
      <trkpt lat="50.12688" lon="5.56024">
        <ele>427</ele>
        <time>2015-08-16T08:48:54Z</time>
      </trkpt>
      <trkpt lat="50.12691" lon="5.56018">
        <ele>427</ele>
        <time>2015-08-16T08:48:59Z</time>
      </trkpt>
      <trkpt lat="50.12691" lon="5.5601">
        <ele>427</ele>
        <time>2015-08-16T08:49:04Z</time>
      </trkpt>
      <trkpt lat="50.12691" lon="5.56003">
        <ele>427</ele>
        <time>2015-08-16T08:49:09Z</time>
      </trkpt>
      <trkpt lat="50.12688" lon="5.55995">
        <ele>427</ele>
        <time>2015-08-16T08:49:15Z</time>
      </trkpt>
      <trkpt lat="50.12685" lon="5.55986">
        <ele>427</ele>
        <time>2015-08-16T08:49:21Z</time>
      </trkpt>
      <trkpt lat="50.12685" lon="5.55975">
        <ele>427</ele>
        <time>2015-08-16T08:49:27Z</time>
      </trkpt>
      <trkpt lat="50.12685" lon="5.55967">
        <ele>427</ele>
        <time>2015-08-16T08:49:32Z</time>
      </trkpt>
      <trkpt lat="50.12684" lon="5.55957">
        <ele>428</ele>
        <time>2015-08-16T08:49:38Z</time>
      </trkpt>
      <trkpt lat="50.12682" lon="5.55952">
        <ele>427</ele>
        <time>2015-08-16T08:49:43Z</time>
      </trkpt>
      <trkpt lat="50.12683" lon="5.55948">
        <ele>427</ele>
        <time>2015-08-16T08:49:49Z</time>
      </trkpt>
      <trkpt lat="50.12686" lon="5.55946">
        <ele>427</ele>
        <time>2015-08-16T08:49:55Z</time>
      </trkpt>
      <trkpt lat="50.12688" lon="5.5594">
        <ele>427</ele>
        <time>2015-08-16T08:50:00Z</time>
      </trkpt>
      <trkpt lat="50.12691" lon="5.55934">
        <ele>427</ele>
        <time>2015-08-16T08:50:05Z</time>
      </trkpt>
      <trkpt lat="50.12692" lon="5.55927">
        <ele>427</ele>
        <time>2015-08-16T08:50:10Z</time>
      </trkpt>
      <trkpt lat="50.12693" lon="5.55922">
        <ele>426</ele>
        <time>2015-08-16T08:50:15Z</time>
      </trkpt>
      <trkpt lat="50.12693" lon="5.55917">
        <ele>426</ele>
        <time>2015-08-16T08:50:21Z</time>
      </trkpt>
      <trkpt lat="50.12694" lon="5.55909">
        <ele>426</ele>
        <time>2015-08-16T08:50:27Z</time>
      </trkpt>
      <trkpt lat="50.12695" lon="5.55904">
        <ele>426</ele>
        <time>2015-08-16T08:50:32Z</time>
      </trkpt>
      <trkpt lat="50.12695" lon="5.55897">
        <ele>426</ele>
        <time>2015-08-16T08:50:37Z</time>
      </trkpt>
      <trkpt lat="50.12692" lon="5.55892">
        <ele>426</ele>
        <time>2015-08-16T08:50:43Z</time>
      </trkpt>
      <trkpt lat="50.1269" lon="5.55887">
        <ele>426</ele>
        <time>2015-08-16T08:50:48Z</time>
      </trkpt>
      <trkpt lat="50.12689" lon="5.55877">
        <ele>426</ele>
        <time>2015-08-16T08:50:54Z</time>
      </trkpt>
      <trkpt lat="50.1269" lon="5.55868">
        <ele>426</ele>
        <time>2015-08-16T08:50:59Z</time>
      </trkpt>
      <trkpt lat="50.1269" lon="5.55858">
        <ele>425</ele>
        <time>2015-08-16T08:51:04Z</time>
      </trkpt>
      <trkpt lat="50.12685" lon="5.55847">
        <ele>425</ele>
        <time>2015-08-16T08:51:09Z</time>
      </trkpt>
      <trkpt lat="50.12684" lon="5.55836">
        <ele>426</ele>
        <time>2015-08-16T08:51:15Z</time>
      </trkpt>
      <trkpt lat="50.12678" lon="5.55825">
        <ele>425</ele>
        <time>2015-08-16T08:51:20Z</time>
      </trkpt>
      <trkpt lat="50.12677" lon="5.55814">
        <ele>425</ele>
        <time>2015-08-16T08:51:26Z</time>
      </trkpt>
      <trkpt lat="50.12673" lon="5.55802">
        <ele>424</ele>
        <time>2015-08-16T08:51:32Z</time>
      </trkpt>
      <trkpt lat="50.12672" lon="5.55795">
        <ele>424</ele>
        <time>2015-08-16T08:51:37Z</time>
      </trkpt>
      <trkpt lat="50.12673" lon="5.55782">
        <ele>424</ele>
        <time>2015-08-16T08:51:43Z</time>
      </trkpt>
      <trkpt lat="50.12674" lon="5.55773">
        <ele>424</ele>
        <time>2015-08-16T08:51:48Z</time>
      </trkpt>
      <trkpt lat="50.12675" lon="5.55763">
        <ele>424</ele>
        <time>2015-08-16T08:51:54Z</time>
      </trkpt>
      <trkpt lat="50.12677" lon="5.55754">
        <ele>423</ele>
        <time>2015-08-16T08:52:00Z</time>
      </trkpt>
      <trkpt lat="50.12676" lon="5.55746">
        <ele>424</ele>
        <time>2015-08-16T08:52:05Z</time>
      </trkpt>
      <trkpt lat="50.12676" lon="5.55739">
        <ele>423</ele>
        <time>2015-08-16T08:52:10Z</time>
      </trkpt>
      <trkpt lat="50.12675" lon="5.55731">
        <ele>424</ele>
        <time>2015-08-16T08:52:16Z</time>
      </trkpt>
      <trkpt lat="50.12674" lon="5.55728">
        <ele>424</ele>
        <time>2015-08-16T08:52:22Z</time>
      </trkpt>
      <trkpt lat="50.1267" lon="5.55729">
        <ele>424</ele>
        <time>2015-08-16T08:52:28Z</time>
      </trkpt>
      <trkpt lat="50.12667" lon="5.5573">
        <ele>424</ele>
        <time>2015-08-16T08:52:34Z</time>
      </trkpt>
      <trkpt lat="50.12664" lon="5.55733">
        <ele>424</ele>
        <time>2015-08-16T08:52:39Z</time>
      </trkpt>
      <trkpt lat="50.12661" lon="5.55735">
        <ele>424</ele>
        <time>2015-08-16T08:52:44Z</time>
      </trkpt>
      <trkpt lat="50.12658" lon="5.55736">
        <ele>424</ele>
        <time>2015-08-16T08:52:49Z</time>
      </trkpt>
      <trkpt lat="50.12655" lon="5.55739">
        <ele>424</ele>
        <time>2015-08-16T08:52:55Z</time>
      </trkpt>
      <trkpt lat="50.12651" lon="5.55741">
        <ele>424</ele>
        <time>2015-08-16T08:53:00Z</time>
      </trkpt>
      <trkpt lat="50.12648" lon="5.55744">
        <ele>424</ele>
        <time>2015-08-16T08:53:06Z</time>
      </trkpt>
      <trkpt lat="50.12646" lon="5.55745">
        <ele>424</ele>
        <time>2015-08-16T08:53:11Z</time>
      </trkpt>
      <trkpt lat="50.12645" lon="5.5575">
        <ele>424</ele>
        <time>2015-08-16T08:53:17Z</time>
      </trkpt>
      <trkpt lat="50.12646" lon="5.55754">
        <ele>424</ele>
        <time>2015-08-16T08:53:22Z</time>
      </trkpt>
      <trkpt lat="50.12646" lon="5.55757">
        <ele>424</ele>
        <time>2015-08-16T08:53:28Z</time>
      </trkpt>
      <trkpt lat="50.12642" lon="5.55759">
        <ele>424</ele>
        <time>2015-08-16T08:53:33Z</time>
      </trkpt>
      <trkpt lat="50.12641" lon="5.55758">
        <ele>425</ele>
        <time>2015-08-16T08:53:39Z</time>
      </trkpt>
      <trkpt lat="50.12643" lon="5.55761">
        <ele>425</ele>
        <time>2015-08-16T08:53:45Z</time>
      </trkpt>
      <trkpt lat="50.1265" lon="5.55763">
        <ele>425</ele>
        <time>2015-08-16T08:53:50Z</time>
      </trkpt>
      <trkpt lat="50.12653" lon="5.55763">
        <ele>425</ele>
        <time>2015-08-16T08:53:56Z</time>
      </trkpt>
      <trkpt lat="50.12655" lon="5.55763">
        <ele>425</ele>
        <time>2015-08-16T08:54:01Z</time>
      </trkpt>
      <trkpt lat="50.12653" lon="5.55762">
        <ele>425</ele>
        <time>2015-08-16T08:54:07Z</time>
      </trkpt>
      <trkpt lat="50.12651" lon="5.55761">
        <ele>425</ele>
        <time>2015-08-16T08:54:12Z</time>
      </trkpt>
      <trkpt lat="50.12649" lon="5.5576">
        <ele>425</ele>
        <time>2015-08-16T08:54:17Z</time>
      </trkpt>
      <trkpt lat="50.12644" lon="5.55761">
        <ele>425</ele>
        <time>2015-08-16T08:54:23Z</time>
      </trkpt>
      <trkpt lat="50.12642" lon="5.55762">
        <ele>424</ele>
        <time>2015-08-16T08:54:29Z</time>
      </trkpt>
      <trkpt lat="50.12639" lon="5.55762">
        <ele>425</ele>
        <time>2015-08-16T08:54:35Z</time>
      </trkpt>
      <trkpt lat="50.12636" lon="5.55761">
        <ele>424</ele>
        <time>2015-08-16T08:54:41Z</time>
      </trkpt>
      <trkpt lat="50.12632" lon="5.55757">
        <ele>424</ele>
        <time>2015-08-16T08:54:46Z</time>
      </trkpt>
      <trkpt lat="50.12628" lon="5.55755">
        <ele>424</ele>
        <time>2015-08-16T08:54:51Z</time>
      </trkpt>
      <trkpt lat="50.12625" lon="5.55753">
        <ele>424</ele>
        <time>2015-08-16T08:54:56Z</time>
      </trkpt>
      <trkpt lat="50.1262" lon="5.55754">
        <ele>424</ele>
        <time>2015-08-16T08:55:02Z</time>
      </trkpt>
      <trkpt lat="50.12616" lon="5.55754">
        <ele>423</ele>
        <time>2015-08-16T08:55:07Z</time>
      </trkpt>
      <trkpt lat="50.12616" lon="5.55753">
        <ele>423</ele>
        <time>2015-08-16T08:55:12Z</time>
      </trkpt>
      <trkpt lat="50.12615" lon="5.55755">
        <ele>423</ele>
        <time>2015-08-16T08:55:18Z</time>
      </trkpt>
      <trkpt lat="50.12612" lon="5.55757">
        <ele>422</ele>
        <time>2015-08-16T08:55:23Z</time>
      </trkpt>
      <trkpt lat="50.12609" lon="5.55758">
        <ele>422</ele>
        <time>2015-08-16T08:55:28Z</time>
      </trkpt>
      <trkpt lat="50.12604" lon="5.55761">
        <ele>421</ele>
        <time>2015-08-16T08:55:34Z</time>
      </trkpt>
      <trkpt lat="50.126" lon="5.55764">
        <ele>421</ele>
        <time>2015-08-16T08:55:39Z</time>
      </trkpt>
      <trkpt lat="50.12593" lon="5.55764">
        <ele>420</ele>
        <time>2015-08-16T08:55:44Z</time>
      </trkpt>
      <trkpt lat="50.12585" lon="5.55766">
        <ele>419</ele>
        <time>2015-08-16T08:55:50Z</time>
      </trkpt>
      <trkpt lat="50.12577" lon="5.55765">
        <ele>418</ele>
        <time>2015-08-16T08:55:55Z</time>
      </trkpt>
      <trkpt lat="50.12571" lon="5.55768">
        <ele>418</ele>
        <time>2015-08-16T08:56:01Z</time>
      </trkpt>
      <trkpt lat="50.12564" lon="5.55773">
        <ele>417</ele>
        <time>2015-08-16T08:56:07Z</time>
      </trkpt>
      <trkpt lat="50.1256" lon="5.55777">
        <ele>416</ele>
        <time>2015-08-16T08:56:12Z</time>
      </trkpt>
      <trkpt lat="50.12555" lon="5.55781">
        <ele>415</ele>
        <time>2015-08-16T08:56:18Z</time>
      </trkpt>
      <trkpt lat="50.12552" lon="5.55785">
        <ele>414</ele>
        <time>2015-08-16T08:56:24Z</time>
      </trkpt>
      <trkpt lat="50.12547" lon="5.55788">
        <ele>414</ele>
        <time>2015-08-16T08:56:30Z</time>
      </trkpt>
      <trkpt lat="50.12545" lon="5.55791">
        <ele>413</ele>
        <time>2015-08-16T08:56:35Z</time>
      </trkpt>
      <trkpt lat="50.12542" lon="5.55793">
        <ele>413</ele>
        <time>2015-08-16T08:56:40Z</time>
      </trkpt>
      <trkpt lat="50.12539" lon="5.55797">
        <ele>412</ele>
        <time>2015-08-16T08:56:46Z</time>
      </trkpt>
      <trkpt lat="50.12531" lon="5.55796">
        <ele>412</ele>
        <time>2015-08-16T08:56:52Z</time>
      </trkpt>
      <trkpt lat="50.12523" lon="5.55797">
        <ele>411</ele>
        <time>2015-08-16T08:56:57Z</time>
      </trkpt>
      <trkpt lat="50.12517" lon="5.55796">
        <ele>411</ele>
        <time>2015-08-16T08:57:03Z</time>
      </trkpt>
      <trkpt lat="50.12511" lon="5.55792">
        <ele>411</ele>
        <time>2015-08-16T08:57:08Z</time>
      </trkpt>
      <trkpt lat="50.12506" lon="5.55784">
        <ele>411</ele>
        <time>2015-08-16T08:57:14Z</time>
      </trkpt>
      <trkpt lat="50.12502" lon="5.55777">
        <ele>411</ele>
        <time>2015-08-16T08:57:19Z</time>
      </trkpt>
      <trkpt lat="50.12495" lon="5.55769">
        <ele>411</ele>
        <time>2015-08-16T08:57:25Z</time>
      </trkpt>
      <trkpt lat="50.12492" lon="5.55761">
        <ele>411</ele>
        <time>2015-08-16T08:57:30Z</time>
      </trkpt>
      <trkpt lat="50.12488" lon="5.55751">
        <ele>410</ele>
        <time>2015-08-16T08:57:36Z</time>
      </trkpt>
      <trkpt lat="50.12489" lon="5.55743">
        <ele>410</ele>
        <time>2015-08-16T08:57:41Z</time>
      </trkpt>
      <trkpt lat="50.12485" lon="5.55733">
        <ele>409</ele>
        <time>2015-08-16T08:57:47Z</time>
      </trkpt>
      <trkpt lat="50.12482" lon="5.55724">
        <ele>409</ele>
        <time>2015-08-16T08:57:52Z</time>
      </trkpt>
      <trkpt lat="50.1248" lon="5.55714">
        <ele>408</ele>
        <time>2015-08-16T08:57:57Z</time>
      </trkpt>
      <trkpt lat="50.12481" lon="5.55704">
        <ele>408</ele>
        <time>2015-08-16T08:58:03Z</time>
      </trkpt>
      <trkpt lat="50.12482" lon="5.55696">
        <ele>408</ele>
        <time>2015-08-16T08:58:08Z</time>
      </trkpt>
      <trkpt lat="50.12482" lon="5.55689">
        <ele>407</ele>
        <time>2015-08-16T08:58:13Z</time>
      </trkpt>
      <trkpt lat="50.12482" lon="5.55679">
        <ele>407</ele>
        <time>2015-08-16T08:58:19Z</time>
      </trkpt>
      <trkpt lat="50.12483" lon="5.55671">
        <ele>407</ele>
        <time>2015-08-16T08:58:25Z</time>
      </trkpt>
      <trkpt lat="50.12481" lon="5.55661">
        <ele>406</ele>
        <time>2015-08-16T08:58:31Z</time>
      </trkpt>
      <trkpt lat="50.12479" lon="5.55652">
        <ele>406</ele>
        <time>2015-08-16T08:58:37Z</time>
      </trkpt>
      <trkpt lat="50.12479" lon="5.55643">
        <ele>406</ele>
        <time>2015-08-16T08:58:42Z</time>
      </trkpt>
      <trkpt lat="50.12482" lon="5.55636">
        <ele>406</ele>
        <time>2015-08-16T08:58:47Z</time>
      </trkpt>
      <trkpt lat="50.12487" lon="5.55624">
        <ele>405</ele>
        <time>2015-08-16T08:58:53Z</time>
      </trkpt>
      <trkpt lat="50.12489" lon="5.55613">
        <ele>405</ele>
        <time>2015-08-16T08:58:59Z</time>
      </trkpt>
      <trkpt lat="50.1249" lon="5.55605">
        <ele>405</ele>
        <time>2015-08-16T08:59:04Z</time>
      </trkpt>
      <trkpt lat="50.12491" lon="5.55594">
        <ele>404</ele>
        <time>2015-08-16T08:59:10Z</time>
      </trkpt>
      <trkpt lat="50.12492" lon="5.55585">
        <ele>404</ele>
        <time>2015-08-16T08:59:15Z</time>
      </trkpt>
      <trkpt lat="50.12489" lon="5.55574">
        <ele>404</ele>
        <time>2015-08-16T08:59:21Z</time>
      </trkpt>
      <trkpt lat="50.12489" lon="5.55562">
        <ele>404</ele>
        <time>2015-08-16T08:59:27Z</time>
      </trkpt>
      <trkpt lat="50.12486" lon="5.55553">
        <ele>404</ele>
        <time>2015-08-16T08:59:32Z</time>
      </trkpt>
      <trkpt lat="50.12485" lon="5.55545">
        <ele>404</ele>
        <time>2015-08-16T08:59:37Z</time>
      </trkpt>
      <trkpt lat="50.12482" lon="5.55532">
        <ele>403</ele>
        <time>2015-08-16T08:59:43Z</time>
      </trkpt>
      <trkpt lat="50.1248" lon="5.55527">
        <ele>403</ele>
        <time>2015-08-16T08:59:48Z</time>
      </trkpt>
      <trkpt lat="50.12482" lon="5.55519">
        <ele>403</ele>
        <time>2015-08-16T08:59:54Z</time>
      </trkpt>
      <trkpt lat="50.1248" lon="5.55513">
        <ele>402</ele>
        <time>2015-08-16T08:59:59Z</time>
      </trkpt>
      <trkpt lat="50.12477" lon="5.55509">
        <ele>402</ele>
        <time>2015-08-16T09:00:04Z</time>
      </trkpt>
      <trkpt lat="50.12474" lon="5.55505">
        <ele>402</ele>
        <time>2015-08-16T09:00:10Z</time>
      </trkpt>
      <trkpt lat="50.12472" lon="5.55501">
        <ele>402</ele>
        <time>2015-08-16T09:00:16Z</time>
      </trkpt>
      <trkpt lat="50.12469" lon="5.55498">
        <ele>402</ele>
        <time>2015-08-16T09:00:22Z</time>
      </trkpt>
      <trkpt lat="50.12471" lon="5.55492">
        <ele>402</ele>
        <time>2015-08-16T09:00:28Z</time>
      </trkpt>
      <trkpt lat="50.12473" lon="5.55483">
        <ele>402</ele>
        <time>2015-08-16T09:00:34Z</time>
      </trkpt>
      <trkpt lat="50.12476" lon="5.55476">
        <ele>402</ele>
        <time>2015-08-16T09:00:40Z</time>
      </trkpt>
      <trkpt lat="50.12478" lon="5.5547">
        <ele>401</ele>
        <time>2015-08-16T09:00:45Z</time>
      </trkpt>
      <trkpt lat="50.12478" lon="5.55463">
        <ele>401</ele>
        <time>2015-08-16T09:00:51Z</time>
      </trkpt>
      <trkpt lat="50.1248" lon="5.55455">
        <ele>401</ele>
        <time>2015-08-16T09:00:56Z</time>
      </trkpt>
      <trkpt lat="50.1248" lon="5.55446">
        <ele>401</ele>
        <time>2015-08-16T09:01:01Z</time>
      </trkpt>
      <trkpt lat="50.1248" lon="5.55438">
        <ele>400</ele>
        <time>2015-08-16T09:01:06Z</time>
      </trkpt>
      <trkpt lat="50.12481" lon="5.55428">
        <ele>399</ele>
        <time>2015-08-16T09:01:12Z</time>
      </trkpt>
      <trkpt lat="50.12482" lon="5.5542">
        <ele>399</ele>
        <time>2015-08-16T09:01:17Z</time>
      </trkpt>
      <trkpt lat="50.12481" lon="5.55411">
        <ele>399</ele>
        <time>2015-08-16T09:01:22Z</time>
      </trkpt>
      <trkpt lat="50.12479" lon="5.55404">
        <ele>399</ele>
        <time>2015-08-16T09:01:27Z</time>
      </trkpt>
      <trkpt lat="50.12482" lon="5.55395">
        <ele>398</ele>
        <time>2015-08-16T09:01:33Z</time>
      </trkpt>
      <trkpt lat="50.12484" lon="5.55389">
        <ele>398</ele>
        <time>2015-08-16T09:01:38Z</time>
      </trkpt>
      <trkpt lat="50.12487" lon="5.55386">
        <ele>398</ele>
        <time>2015-08-16T09:01:43Z</time>
      </trkpt>
      <trkpt lat="50.1249" lon="5.55378">
        <ele>398</ele>
        <time>2015-08-16T09:01:49Z</time>
      </trkpt>
      <trkpt lat="50.1249" lon="5.55373">
        <ele>397</ele>
        <time>2015-08-16T09:01:55Z</time>
      </trkpt>
      <trkpt lat="50.1249" lon="5.55366">
        <ele>397</ele>
        <time>2015-08-16T09:02:01Z</time>
      </trkpt>
      <trkpt lat="50.12487" lon="5.55358">
        <ele>397</ele>
        <time>2015-08-16T09:02:06Z</time>
      </trkpt>
      <trkpt lat="50.12486" lon="5.55352">
        <ele>397</ele>
        <time>2015-08-16T09:02:11Z</time>
      </trkpt>
      <trkpt lat="50.12487" lon="5.55344">
        <ele>396</ele>
        <time>2015-08-16T09:02:17Z</time>
      </trkpt>
      <trkpt lat="50.12485" lon="5.5534">
        <ele>396</ele>
        <time>2015-08-16T09:02:22Z</time>
      </trkpt>
      <trkpt lat="50.12482" lon="5.55335">
        <ele>396</ele>
        <time>2015-08-16T09:02:28Z</time>
      </trkpt>
      <trkpt lat="50.1248" lon="5.55328">
        <ele>396</ele>
        <time>2015-08-16T09:02:33Z</time>
      </trkpt>
      <trkpt lat="50.12479" lon="5.55317">
        <ele>395</ele>
        <time>2015-08-16T09:02:39Z</time>
      </trkpt>
      <trkpt lat="50.1248" lon="5.55309">
        <ele>394</ele>
        <time>2015-08-16T09:02:44Z</time>
      </trkpt>
      <trkpt lat="50.12482" lon="5.55302">
        <ele>394</ele>
        <time>2015-08-16T09:02:49Z</time>
      </trkpt>
      <trkpt lat="50.12483" lon="5.55294">
        <ele>394</ele>
        <time>2015-08-16T09:02:54Z</time>
      </trkpt>
      <trkpt lat="50.12484" lon="5.55286">
        <ele>393</ele>
        <time>2015-08-16T09:03:00Z</time>
      </trkpt>
      <trkpt lat="50.12486" lon="5.5528">
        <ele>392</ele>
        <time>2015-08-16T09:03:05Z</time>
      </trkpt>
      <trkpt lat="50.12488" lon="5.55271">
        <ele>392</ele>
        <time>2015-08-16T09:03:10Z</time>
      </trkpt>
      <trkpt lat="50.12489" lon="5.55262">
        <ele>392</ele>
        <time>2015-08-16T09:03:16Z</time>
      </trkpt>
      <trkpt lat="50.12492" lon="5.55253">
        <ele>391</ele>
        <time>2015-08-16T09:03:21Z</time>
      </trkpt>
      <trkpt lat="50.12494" lon="5.5524">
        <ele>391</ele>
        <time>2015-08-16T09:03:27Z</time>
      </trkpt>
      <trkpt lat="50.12496" lon="5.5523">
        <ele>391</ele>
        <time>2015-08-16T09:03:32Z</time>
      </trkpt>
      <trkpt lat="50.12499" lon="5.5522">
        <ele>391</ele>
        <time>2015-08-16T09:03:38Z</time>
      </trkpt>
      <trkpt lat="50.125" lon="5.55217">
        <ele>390</ele>
        <time>2015-08-16T09:03:43Z</time>
      </trkpt>
      <trkpt lat="50.125" lon="5.55214">
        <ele>389</ele>
        <time>2015-08-16T09:03:49Z</time>
      </trkpt>
      <trkpt lat="50.125" lon="5.55209">
        <ele>389</ele>
        <time>2015-08-16T09:03:55Z</time>
      </trkpt>
      <trkpt lat="50.12503" lon="5.55209">
        <ele>390</ele>
        <time>2015-08-16T09:04:01Z</time>
      </trkpt>
      <trkpt lat="50.12504" lon="5.55208">
        <ele>389</ele>
        <time>2015-08-16T09:04:06Z</time>
      </trkpt>
      <trkpt lat="50.12507" lon="5.55205">
        <ele>389</ele>
        <time>2015-08-16T09:04:11Z</time>
      </trkpt>
      <trkpt lat="50.1251" lon="5.55199">
        <ele>389</ele>
        <time>2015-08-16T09:04:17Z</time>
      </trkpt>
      <trkpt lat="50.12511" lon="5.55193">
        <ele>388</ele>
        <time>2015-08-16T09:04:23Z</time>
      </trkpt>
      <trkpt lat="50.1251" lon="5.55186">
        <ele>388</ele>
        <time>2015-08-16T09:04:28Z</time>
      </trkpt>
      <trkpt lat="50.12508" lon="5.55179">
        <ele>388</ele>
        <time>2015-08-16T09:04:34Z</time>
      </trkpt>
      <trkpt lat="50.12505" lon="5.55175">
        <ele>388</ele>
        <time>2015-08-16T09:04:40Z</time>
      </trkpt>
      <trkpt lat="50.12507" lon="5.55176">
        <ele>388</ele>
        <time>2015-08-16T09:04:45Z</time>
      </trkpt>
      <trkpt lat="50.12507" lon="5.55178">
        <ele>388</ele>
        <time>2015-08-16T09:04:51Z</time>
      </trkpt>
      <trkpt lat="50.12505" lon="5.55179">
        <ele>389</ele>
        <time>2015-08-16T09:04:57Z</time>
      </trkpt>
      <trkpt lat="50.12503" lon="5.5518">
        <ele>390</ele>
        <time>2015-08-16T09:05:02Z</time>
      </trkpt>
      <trkpt lat="50.125" lon="5.55184">
        <ele>391</ele>
        <time>2015-08-16T09:05:08Z</time>
      </trkpt>
      <trkpt lat="50.12498" lon="5.55188">
        <ele>391</ele>
        <time>2015-08-16T09:05:15Z</time>
      </trkpt>
      <trkpt lat="50.12492" lon="5.55188">
        <ele>392</ele>
        <time>2015-08-16T09:05:20Z</time>
      </trkpt>
      <trkpt lat="50.12487" lon="5.55191">
        <ele>393</ele>
        <time>2015-08-16T09:05:25Z</time>
      </trkpt>
      <trkpt lat="50.1248" lon="5.55192">
        <ele>393</ele>
        <time>2015-08-16T09:05:30Z</time>
      </trkpt>
      <trkpt lat="50.12474" lon="5.55194">
        <ele>394</ele>
        <time>2015-08-16T09:05:36Z</time>
      </trkpt>
      <trkpt lat="50.12468" lon="5.55197">
        <ele>394</ele>
        <time>2015-08-16T09:05:42Z</time>
      </trkpt>
      <trkpt lat="50.12462" lon="5.55202">
        <ele>395</ele>
        <time>2015-08-16T09:05:48Z</time>
      </trkpt>
      <trkpt lat="50.12455" lon="5.55204">
        <ele>395</ele>
        <time>2015-08-16T09:05:53Z</time>
      </trkpt>
      <trkpt lat="50.12449" lon="5.55208">
        <ele>396</ele>
        <time>2015-08-16T09:05:59Z</time>
      </trkpt>
      <trkpt lat="50.12442" lon="5.55212">
        <ele>397</ele>
        <time>2015-08-16T09:06:04Z</time>
      </trkpt>
      <trkpt lat="50.12434" lon="5.5521">
        <ele>397</ele>
        <time>2015-08-16T09:06:10Z</time>
      </trkpt>
      <trkpt lat="50.1243" lon="5.5521">
        <ele>396</ele>
        <time>2015-08-16T09:06:15Z</time>
      </trkpt>
      <trkpt lat="50.12428" lon="5.55211">
        <ele>396</ele>
        <time>2015-08-16T09:06:20Z</time>
      </trkpt>
      <trkpt lat="50.12426" lon="5.55214">
        <ele>397</ele>
        <time>2015-08-16T09:06:26Z</time>
      </trkpt>
      <trkpt lat="50.12424" lon="5.55219">
        <ele>397</ele>
        <time>2015-08-16T09:06:31Z</time>
      </trkpt>
      <trkpt lat="50.12419" lon="5.55224">
        <ele>397</ele>
        <time>2015-08-16T09:06:36Z</time>
      </trkpt>
      <trkpt lat="50.12415" lon="5.5523">
        <ele>398</ele>
        <time>2015-08-16T09:06:42Z</time>
      </trkpt>
      <trkpt lat="50.12413" lon="5.55234">
        <ele>399</ele>
        <time>2015-08-16T09:06:48Z</time>
      </trkpt>
      <trkpt lat="50.1241" lon="5.55237">
        <ele>400</ele>
        <time>2015-08-16T09:06:53Z</time>
      </trkpt>
      <trkpt lat="50.1241" lon="5.55242">
        <ele>401</ele>
        <time>2015-08-16T09:06:59Z</time>
      </trkpt>
      <trkpt lat="50.12407" lon="5.55247">
        <ele>401</ele>
        <time>2015-08-16T09:07:04Z</time>
      </trkpt>
      <trkpt lat="50.12402" lon="5.55253">
        <ele>400</ele>
        <time>2015-08-16T09:07:10Z</time>
      </trkpt>
      <trkpt lat="50.124" lon="5.55259">
        <ele>401</ele>
        <time>2015-08-16T09:07:15Z</time>
      </trkpt>
      <trkpt lat="50.12394" lon="5.55265">
        <ele>402</ele>
        <time>2015-08-16T09:07:21Z</time>
      </trkpt>
      <trkpt lat="50.1239" lon="5.55273">
        <ele>402</ele>
        <time>2015-08-16T09:07:27Z</time>
      </trkpt>
      <trkpt lat="50.12386" lon="5.55279">
        <ele>402</ele>
        <time>2015-08-16T09:07:33Z</time>
      </trkpt>
      <trkpt lat="50.12381" lon="5.55287">
        <ele>402</ele>
        <time>2015-08-16T09:07:39Z</time>
      </trkpt>
      <trkpt lat="50.12377" lon="5.55295">
        <ele>402</ele>
        <time>2015-08-16T09:07:45Z</time>
      </trkpt>
      <trkpt lat="50.12375" lon="5.55303">
        <ele>402</ele>
        <time>2015-08-16T09:07:51Z</time>
      </trkpt>
      <trkpt lat="50.12373" lon="5.55308">
        <ele>402</ele>
        <time>2015-08-16T09:07:56Z</time>
      </trkpt>
      <trkpt lat="50.12368" lon="5.55315">
        <ele>402</ele>
        <time>2015-08-16T09:08:02Z</time>
      </trkpt>
      <trkpt lat="50.12364" lon="5.55321">
        <ele>402</ele>
        <time>2015-08-16T09:08:08Z</time>
      </trkpt>
      <trkpt lat="50.1236" lon="5.55328">
        <ele>401</ele>
        <time>2015-08-16T09:08:13Z</time>
      </trkpt>
      <trkpt lat="50.12356" lon="5.55334">
        <ele>401</ele>
        <time>2015-08-16T09:08:19Z</time>
      </trkpt>
      <trkpt lat="50.12352" lon="5.55341">
        <ele>401</ele>
        <time>2015-08-16T09:08:24Z</time>
      </trkpt>
      <trkpt lat="50.12349" lon="5.55348">
        <ele>401</ele>
        <time>2015-08-16T09:08:29Z</time>
      </trkpt>
      <trkpt lat="50.12344" lon="5.55355">
        <ele>401</ele>
        <time>2015-08-16T09:08:35Z</time>
      </trkpt>
      <trkpt lat="50.12338" lon="5.55361">
        <ele>401</ele>
        <time>2015-08-16T09:08:40Z</time>
      </trkpt>
      <trkpt lat="50.12333" lon="5.55367">
        <ele>401</ele>
        <time>2015-08-16T09:08:46Z</time>
      </trkpt>
      <trkpt lat="50.12329" lon="5.55371">
        <ele>402</ele>
        <time>2015-08-16T09:08:51Z</time>
      </trkpt>
      <trkpt lat="50.1233" lon="5.55373">
        <ele>402</ele>
        <time>2015-08-16T09:08:56Z</time>
      </trkpt>
      <trkpt lat="50.12328" lon="5.55375">
        <ele>401</ele>
        <time>2015-08-16T09:09:02Z</time>
      </trkpt>
      <trkpt lat="50.12325" lon="5.55379">
        <ele>401</ele>
        <time>2015-08-16T09:09:08Z</time>
      </trkpt>
      <trkpt lat="50.12324" lon="5.55381">
        <ele>401</ele>
        <time>2015-08-16T09:09:13Z</time>
      </trkpt>
      <trkpt lat="50.12321" lon="5.55382">
        <ele>401</ele>
        <time>2015-08-16T09:09:18Z</time>
      </trkpt>
      <trkpt lat="50.12317" lon="5.55385">
        <ele>402</ele>
        <time>2015-08-16T09:09:24Z</time>
      </trkpt>
      <trkpt lat="50.12316" lon="5.55389">
        <ele>401</ele>
        <time>2015-08-16T09:09:30Z</time>
      </trkpt>
      <trkpt lat="50.12315" lon="5.55391">
        <ele>402</ele>
        <time>2015-08-16T09:09:36Z</time>
      </trkpt>
      <trkpt lat="50.12317" lon="5.55394">
        <ele>402</ele>
        <time>2015-08-16T09:09:42Z</time>
      </trkpt>
      <trkpt lat="50.12317" lon="5.55397">
        <ele>402</ele>
        <time>2015-08-16T09:09:47Z</time>
      </trkpt>
      <trkpt lat="50.1232" lon="5.55401">
        <ele>402</ele>
        <time>2015-08-16T09:09:53Z</time>
      </trkpt>
      <trkpt lat="50.1232" lon="5.55402">
        <ele>401</ele>
        <time>2015-08-16T09:09:58Z</time>
      </trkpt>
      <trkpt lat="50.12314" lon="5.55403">
        <ele>401</ele>
        <time>2015-08-16T09:10:04Z</time>
      </trkpt>
      <trkpt lat="50.12308" lon="5.55405">
        <ele>401</ele>
        <time>2015-08-16T09:10:09Z</time>
      </trkpt>
      <trkpt lat="50.12305" lon="5.55407">
        <ele>402</ele>
        <time>2015-08-16T09:10:14Z</time>
      </trkpt>
      <trkpt lat="50.12304" lon="5.55409">
        <ele>402</ele>
        <time>2015-08-16T09:10:19Z</time>
      </trkpt>
      <trkpt lat="50.12298" lon="5.55411">
        <ele>403</ele>
        <time>2015-08-16T09:10:24Z</time>
      </trkpt>
      <trkpt lat="50.12294" lon="5.55417">
        <ele>403</ele>
        <time>2015-08-16T09:10:30Z</time>
      </trkpt>
      <trkpt lat="50.12291" lon="5.5542">
        <ele>404</ele>
        <time>2015-08-16T09:10:36Z</time>
      </trkpt>
      <trkpt lat="50.12283" lon="5.55422">
        <ele>404</ele>
        <time>2015-08-16T09:10:41Z</time>
      </trkpt>
      <trkpt lat="50.12277" lon="5.55427">
        <ele>404</ele>
        <time>2015-08-16T09:10:46Z</time>
      </trkpt>
      <trkpt lat="50.12273" lon="5.55433">
        <ele>404</ele>
        <time>2015-08-16T09:10:52Z</time>
      </trkpt>
      <trkpt lat="50.12266" lon="5.55437">
        <ele>404</ele>
        <time>2015-08-16T09:10:57Z</time>
      </trkpt>
      <trkpt lat="50.12257" lon="5.5544">
        <ele>404</ele>
        <time>2015-08-16T09:11:03Z</time>
      </trkpt>
      <trkpt lat="50.12252" lon="5.55445">
        <ele>404</ele>
        <time>2015-08-16T09:11:09Z</time>
      </trkpt>
      <trkpt lat="50.12246" lon="5.5545">
        <ele>404</ele>
        <time>2015-08-16T09:11:15Z</time>
      </trkpt>
      <trkpt lat="50.12241" lon="5.55454">
        <ele>405</ele>
        <time>2015-08-16T09:11:20Z</time>
      </trkpt>
      <trkpt lat="50.12239" lon="5.5546">
        <ele>405</ele>
        <time>2015-08-16T09:11:25Z</time>
      </trkpt>
      <trkpt lat="50.12234" lon="5.55467">
        <ele>406</ele>
        <time>2015-08-16T09:11:31Z</time>
      </trkpt>
      <trkpt lat="50.1223" lon="5.55472">
        <ele>407</ele>
        <time>2015-08-16T09:11:37Z</time>
      </trkpt>
      <trkpt lat="50.12227" lon="5.55475">
        <ele>407</ele>
        <time>2015-08-16T09:11:42Z</time>
      </trkpt>
      <trkpt lat="50.12223" lon="5.55478">
        <ele>407</ele>
        <time>2015-08-16T09:11:47Z</time>
      </trkpt>
      <trkpt lat="50.12219" lon="5.55482">
        <ele>407</ele>
        <time>2015-08-16T09:11:52Z</time>
      </trkpt>
      <trkpt lat="50.12215" lon="5.55485">
        <ele>407</ele>
        <time>2015-08-16T09:11:58Z</time>
      </trkpt>
      <trkpt lat="50.12207" lon="5.55485">
        <ele>407</ele>
        <time>2015-08-16T09:12:04Z</time>
      </trkpt>
      <trkpt lat="50.12205" lon="5.5549">
        <ele>408</ele>
        <time>2015-08-16T09:12:09Z</time>
      </trkpt>
      <trkpt lat="50.12202" lon="5.55492">
        <ele>408</ele>
        <time>2015-08-16T09:12:14Z</time>
      </trkpt>
      <trkpt lat="50.12198" lon="5.55492">
        <ele>408</ele>
        <time>2015-08-16T09:12:19Z</time>
      </trkpt>
      <trkpt lat="50.12191" lon="5.55495">
        <ele>408</ele>
        <time>2015-08-16T09:12:24Z</time>
      </trkpt>
      <trkpt lat="50.12187" lon="5.55499">
        <ele>408</ele>
        <time>2015-08-16T09:12:30Z</time>
      </trkpt>
      <trkpt lat="50.12182" lon="5.555">
        <ele>409</ele>
        <time>2015-08-16T09:12:35Z</time>
      </trkpt>
      <trkpt lat="50.12176" lon="5.55502">
        <ele>409</ele>
        <time>2015-08-16T09:12:40Z</time>
      </trkpt>
      <trkpt lat="50.12169" lon="5.55504">
        <ele>409</ele>
        <time>2015-08-16T09:12:46Z</time>
      </trkpt>
      <trkpt lat="50.12162" lon="5.55507">
        <ele>409</ele>
        <time>2015-08-16T09:12:51Z</time>
      </trkpt>
      <trkpt lat="50.12154" lon="5.55509">
        <ele>410</ele>
        <time>2015-08-16T09:12:57Z</time>
      </trkpt>
      <trkpt lat="50.12146" lon="5.5551">
        <ele>410</ele>
        <time>2015-08-16T09:13:02Z</time>
      </trkpt>
      <trkpt lat="50.12141" lon="5.55512">
        <ele>410</ele>
        <time>2015-08-16T09:13:07Z</time>
      </trkpt>
      <trkpt lat="50.12139" lon="5.55514">
        <ele>411</ele>
        <time>2015-08-16T09:13:13Z</time>
      </trkpt>
      <trkpt lat="50.12132" lon="5.55515">
        <ele>411</ele>
        <time>2015-08-16T09:13:18Z</time>
      </trkpt>
      <trkpt lat="50.12125" lon="5.55517">
        <ele>411</ele>
        <time>2015-08-16T09:13:23Z</time>
      </trkpt>
      <trkpt lat="50.12117" lon="5.55524">
        <ele>412</ele>
        <time>2015-08-16T09:13:29Z</time>
      </trkpt>
      <trkpt lat="50.12108" lon="5.55528">
        <ele>412</ele>
        <time>2015-08-16T09:13:35Z</time>
      </trkpt>
      <trkpt lat="50.12102" lon="5.55529">
        <ele>412</ele>
        <time>2015-08-16T09:13:40Z</time>
      </trkpt>
      <trkpt lat="50.12094" lon="5.55532">
        <ele>413</ele>
        <time>2015-08-16T09:13:46Z</time>
      </trkpt>
      <trkpt lat="50.12088" lon="5.55533">
        <ele>413</ele>
        <time>2015-08-16T09:13:51Z</time>
      </trkpt>
      <trkpt lat="50.12083" lon="5.55534">
        <ele>413</ele>
        <time>2015-08-16T09:13:56Z</time>
      </trkpt>
      <trkpt lat="50.12077" lon="5.55536">
        <ele>414</ele>
        <time>2015-08-16T09:14:02Z</time>
      </trkpt>
      <trkpt lat="50.12072" lon="5.55539">
        <ele>414</ele>
        <time>2015-08-16T09:14:07Z</time>
      </trkpt>
      <trkpt lat="50.12066" lon="5.55542">
        <ele>414</ele>
        <time>2015-08-16T09:14:12Z</time>
      </trkpt>
      <trkpt lat="50.1206" lon="5.55544">
        <ele>414</ele>
        <time>2015-08-16T09:14:18Z</time>
      </trkpt>
      <trkpt lat="50.12053" lon="5.55546">
        <ele>414</ele>
        <time>2015-08-16T09:14:24Z</time>
      </trkpt>
      <trkpt lat="50.12048" lon="5.55548">
        <ele>415</ele>
        <time>2015-08-16T09:14:29Z</time>
      </trkpt>
      <trkpt lat="50.12042" lon="5.55552">
        <ele>415</ele>
        <time>2015-08-16T09:14:35Z</time>
      </trkpt>
      <trkpt lat="50.12037" lon="5.55556">
        <ele>415</ele>
        <time>2015-08-16T09:14:40Z</time>
      </trkpt>
      <trkpt lat="50.12031" lon="5.5556">
        <ele>416</ele>
        <time>2015-08-16T09:14:46Z</time>
      </trkpt>
      <trkpt lat="50.12026" lon="5.55563">
        <ele>416</ele>
        <time>2015-08-16T09:14:51Z</time>
      </trkpt>
      <trkpt lat="50.12021" lon="5.55566">
        <ele>416</ele>
        <time>2015-08-16T09:14:56Z</time>
      </trkpt>
      <trkpt lat="50.12019" lon="5.55567">
        <ele>417</ele>
        <time>2015-08-16T09:15:01Z</time>
      </trkpt>
      <trkpt lat="50.12015" lon="5.5557">
        <ele>416</ele>
        <time>2015-08-16T09:15:06Z</time>
      </trkpt>
      <trkpt lat="50.12009" lon="5.55575">
        <ele>417</ele>
        <time>2015-08-16T09:15:12Z</time>
      </trkpt>
      <trkpt lat="50.12004" lon="5.55578">
        <ele>417</ele>
        <time>2015-08-16T09:15:17Z</time>
      </trkpt>
      <trkpt lat="50.12" lon="5.5558">
        <ele>417</ele>
        <time>2015-08-16T09:15:22Z</time>
      </trkpt>
      <trkpt lat="50.11993" lon="5.55582">
        <ele>417</ele>
        <time>2015-08-16T09:15:28Z</time>
      </trkpt>
      <trkpt lat="50.11988" lon="5.55586">
        <ele>418</ele>
        <time>2015-08-16T09:15:34Z</time>
      </trkpt>
      <trkpt lat="50.11983" lon="5.5559">
        <ele>418</ele>
        <time>2015-08-16T09:15:39Z</time>
      </trkpt>
      <trkpt lat="50.11977" lon="5.55594">
        <ele>419</ele>
        <time>2015-08-16T09:15:45Z</time>
      </trkpt>
      <trkpt lat="50.1197" lon="5.55598">
        <ele>419</ele>
        <time>2015-08-16T09:15:51Z</time>
      </trkpt>
      <trkpt lat="50.11963" lon="5.55602">
        <ele>419</ele>
        <time>2015-08-16T09:15:57Z</time>
      </trkpt>
      <trkpt lat="50.11958" lon="5.55604">
        <ele>420</ele>
        <time>2015-08-16T09:16:02Z</time>
      </trkpt>
      <trkpt lat="50.11952" lon="5.55609">
        <ele>420</ele>
        <time>2015-08-16T09:16:08Z</time>
      </trkpt>
      <trkpt lat="50.11946" lon="5.55612">
        <ele>420</ele>
        <time>2015-08-16T09:16:13Z</time>
      </trkpt>
      <trkpt lat="50.1194" lon="5.55616">
        <ele>421</ele>
        <time>2015-08-16T09:16:19Z</time>
      </trkpt>
      <trkpt lat="50.11934" lon="5.55619">
        <ele>421</ele>
        <time>2015-08-16T09:16:25Z</time>
      </trkpt>
      <trkpt lat="50.11929" lon="5.55622">
        <ele>421</ele>
        <time>2015-08-16T09:16:30Z</time>
      </trkpt>
      <trkpt lat="50.11924" lon="5.55624">
        <ele>421</ele>
        <time>2015-08-16T09:16:35Z</time>
      </trkpt>
      <trkpt lat="50.11917" lon="5.55628">
        <ele>421</ele>
        <time>2015-08-16T09:16:41Z</time>
      </trkpt>
      <trkpt lat="50.11912" lon="5.55632">
        <ele>422</ele>
        <time>2015-08-16T09:16:46Z</time>
      </trkpt>
      <trkpt lat="50.11907" lon="5.55635">
        <ele>422</ele>
        <time>2015-08-16T09:16:51Z</time>
      </trkpt>
      <trkpt lat="50.11901" lon="5.5564">
        <ele>423</ele>
        <time>2015-08-16T09:16:57Z</time>
      </trkpt>
      <trkpt lat="50.11896" lon="5.55643">
        <ele>423</ele>
        <time>2015-08-16T09:17:02Z</time>
      </trkpt>
      <trkpt lat="50.1189" lon="5.55646">
        <ele>423</ele>
        <time>2015-08-16T09:17:07Z</time>
      </trkpt>
      <trkpt lat="50.11885" lon="5.55651">
        <ele>423</ele>
        <time>2015-08-16T09:17:13Z</time>
      </trkpt>
      <trkpt lat="50.11882" lon="5.55653">
        <ele>423</ele>
        <time>2015-08-16T09:17:18Z</time>
      </trkpt>
      <trkpt lat="50.11877" lon="5.55658">
        <ele>424</ele>
        <time>2015-08-16T09:17:23Z</time>
      </trkpt>
      <trkpt lat="50.11872" lon="5.55661">
        <ele>424</ele>
        <time>2015-08-16T09:17:29Z</time>
      </trkpt>
      <trkpt lat="50.11867" lon="5.55665">
        <ele>424</ele>
        <time>2015-08-16T09:17:35Z</time>
      </trkpt>
      <trkpt lat="50.11863" lon="5.55668">
        <ele>425</ele>
        <time>2015-08-16T09:17:40Z</time>
      </trkpt>
      <trkpt lat="50.11858" lon="5.55672">
        <ele>425</ele>
        <time>2015-08-16T09:17:46Z</time>
      </trkpt>
      <trkpt lat="50.11853" lon="5.55675">
        <ele>426</ele>
        <time>2015-08-16T09:17:52Z</time>
      </trkpt>
      <trkpt lat="50.11848" lon="5.55678">
        <ele>425</ele>
        <time>2015-08-16T09:17:58Z</time>
      </trkpt>
      <trkpt lat="50.11843" lon="5.55681">
        <ele>426</ele>
        <time>2015-08-16T09:18:03Z</time>
      </trkpt>
      <trkpt lat="50.11838" lon="5.55683">
        <ele>427</ele>
        <time>2015-08-16T09:18:09Z</time>
      </trkpt>
      <trkpt lat="50.11833" lon="5.55685">
        <ele>427</ele>
        <time>2015-08-16T09:18:14Z</time>
      </trkpt>
      <trkpt lat="50.11827" lon="5.55688">
        <ele>428</ele>
        <time>2015-08-16T09:18:20Z</time>
      </trkpt>
      <trkpt lat="50.11821" lon="5.5569">
        <ele>428</ele>
        <time>2015-08-16T09:18:26Z</time>
      </trkpt>
      <trkpt lat="50.11815" lon="5.55693">
        <ele>428</ele>
        <time>2015-08-16T09:18:32Z</time>
      </trkpt>
      <trkpt lat="50.11811" lon="5.55693">
        <ele>428</ele>
        <time>2015-08-16T09:18:37Z</time>
      </trkpt>
      <trkpt lat="50.1181" lon="5.55693">
        <ele>429</ele>
        <time>2015-08-16T09:18:43Z</time>
      </trkpt>
      <trkpt lat="50.11805" lon="5.55695">
        <ele>429</ele>
        <time>2015-08-16T09:18:49Z</time>
      </trkpt>
      <trkpt lat="50.11801" lon="5.55695">
        <ele>430</ele>
        <time>2015-08-16T09:18:54Z</time>
      </trkpt>
      <trkpt lat="50.11797" lon="5.55694">
        <ele>430</ele>
        <time>2015-08-16T09:19:00Z</time>
      </trkpt>
      <trkpt lat="50.11797" lon="5.55694">
        <ele>431</ele>
        <time>2015-08-16T09:19:05Z</time>
      </trkpt>
      <trkpt lat="50.11792" lon="5.55696">
        <ele>430</ele>
        <time>2015-08-16T09:19:11Z</time>
      </trkpt>
      <trkpt lat="50.11786" lon="5.55698">
        <ele>431</ele>
        <time>2015-08-16T09:19:16Z</time>
      </trkpt>
      <trkpt lat="50.11779" lon="5.557">
        <ele>431</ele>
        <time>2015-08-16T09:19:22Z</time>
      </trkpt>
      <trkpt lat="50.11772" lon="5.55701">
        <ele>432</ele>
        <time>2015-08-16T09:19:27Z</time>
      </trkpt>
      <trkpt lat="50.11765" lon="5.55701">
        <ele>432</ele>
        <time>2015-08-16T09:19:33Z</time>
      </trkpt>
      <trkpt lat="50.1176" lon="5.55702">
        <ele>433</ele>
        <time>2015-08-16T09:19:38Z</time>
      </trkpt>
      <trkpt lat="50.11757" lon="5.55701">
        <ele>434</ele>
        <time>2015-08-16T09:19:43Z</time>
      </trkpt>
      <trkpt lat="50.1175" lon="5.557">
        <ele>434</ele>
        <time>2015-08-16T09:19:49Z</time>
      </trkpt>
      <trkpt lat="50.11745" lon="5.55699">
        <ele>434</ele>
        <time>2015-08-16T09:19:54Z</time>
      </trkpt>
      <trkpt lat="50.11742" lon="5.55699">
        <ele>435</ele>
        <time>2015-08-16T09:19:59Z</time>
      </trkpt>
      <trkpt lat="50.11738" lon="5.55698">
        <ele>435</ele>
        <time>2015-08-16T09:20:04Z</time>
      </trkpt>
      <trkpt lat="50.11732" lon="5.55696">
        <ele>434</ele>
        <time>2015-08-16T09:20:09Z</time>
      </trkpt>
      <trkpt lat="50.11728" lon="5.55693">
        <ele>435</ele>
        <time>2015-08-16T09:20:15Z</time>
      </trkpt>
      <trkpt lat="50.11725" lon="5.55687">
        <ele>435</ele>
        <time>2015-08-16T09:20:21Z</time>
      </trkpt>
      <trkpt lat="50.11723" lon="5.55678">
        <ele>435</ele>
        <time>2015-08-16T09:20:27Z</time>
      </trkpt>
      <trkpt lat="50.11721" lon="5.5567">
        <ele>435</ele>
        <time>2015-08-16T09:20:32Z</time>
      </trkpt>
      <trkpt lat="50.11719" lon="5.55663">
        <ele>434</ele>
        <time>2015-08-16T09:20:38Z</time>
      </trkpt>
      <trkpt lat="50.11718" lon="5.55664">
        <ele>434</ele>
        <time>2015-08-16T09:20:43Z</time>
      </trkpt>
      <trkpt lat="50.11716" lon="5.55665">
        <ele>434</ele>
        <time>2015-08-16T09:20:49Z</time>
      </trkpt>
      <trkpt lat="50.11715" lon="5.55664">
        <ele>434</ele>
        <time>2015-08-16T09:20:54Z</time>
      </trkpt>
      <trkpt lat="50.11716" lon="5.55653">
        <ele>434</ele>
        <time>2015-08-16T09:21:00Z</time>
      </trkpt>
      <trkpt lat="50.11713" lon="5.55642">
        <ele>434</ele>
        <time>2015-08-16T09:21:06Z</time>
      </trkpt>
      <trkpt lat="50.1171" lon="5.55633">
        <ele>433</ele>
        <time>2015-08-16T09:21:11Z</time>
      </trkpt>
      <trkpt lat="50.11709" lon="5.55624">
        <ele>433</ele>
        <time>2015-08-16T09:21:16Z</time>
      </trkpt>
      <trkpt lat="50.11707" lon="5.55613">
        <ele>433</ele>
        <time>2015-08-16T09:21:22Z</time>
      </trkpt>
      <trkpt lat="50.11707" lon="5.55606">
        <ele>433</ele>
        <time>2015-08-16T09:21:27Z</time>
      </trkpt>
      <trkpt lat="50.11706" lon="5.55597">
        <ele>433</ele>
        <time>2015-08-16T09:21:33Z</time>
      </trkpt>
      <trkpt lat="50.11705" lon="5.5559">
        <ele>432</ele>
        <time>2015-08-16T09:21:38Z</time>
      </trkpt>
      <trkpt lat="50.11705" lon="5.5558">
        <ele>432</ele>
        <time>2015-08-16T09:21:44Z</time>
      </trkpt>
      <trkpt lat="50.11704" lon="5.55573">
        <ele>432</ele>
        <time>2015-08-16T09:21:50Z</time>
      </trkpt>
      <trkpt lat="50.11704" lon="5.55564">
        <ele>431</ele>
        <time>2015-08-16T09:21:56Z</time>
      </trkpt>
      <trkpt lat="50.11703" lon="5.55555">
        <ele>432</ele>
        <time>2015-08-16T09:22:01Z</time>
      </trkpt>
      <trkpt lat="50.11703" lon="5.55543">
        <ele>431</ele>
        <time>2015-08-16T09:22:07Z</time>
      </trkpt>
      <trkpt lat="50.11703" lon="5.55531">
        <ele>432</ele>
        <time>2015-08-16T09:22:13Z</time>
      </trkpt>
      <trkpt lat="50.11704" lon="5.5552">
        <ele>432</ele>
        <time>2015-08-16T09:22:18Z</time>
      </trkpt>
      <trkpt lat="50.11703" lon="5.55511">
        <ele>432</ele>
        <time>2015-08-16T09:22:23Z</time>
      </trkpt>
      <trkpt lat="50.11702" lon="5.55499">
        <ele>431</ele>
        <time>2015-08-16T09:22:29Z</time>
      </trkpt>
      <trkpt lat="50.11702" lon="5.55493">
        <ele>431</ele>
        <time>2015-08-16T09:22:34Z</time>
      </trkpt>
      <trkpt lat="50.11702" lon="5.55484">
        <ele>432</ele>
        <time>2015-08-16T09:22:40Z</time>
      </trkpt>
      <trkpt lat="50.11702" lon="5.55476">
        <ele>432</ele>
        <time>2015-08-16T09:22:45Z</time>
      </trkpt>
      <trkpt lat="50.11701" lon="5.55469">
        <ele>432</ele>
        <time>2015-08-16T09:22:51Z</time>
      </trkpt>
      <trkpt lat="50.11701" lon="5.55461">
        <ele>431</ele>
        <time>2015-08-16T09:22:56Z</time>
      </trkpt>
      <trkpt lat="50.11703" lon="5.55451">
        <ele>431</ele>
        <time>2015-08-16T09:23:02Z</time>
      </trkpt>
      <trkpt lat="50.11703" lon="5.55439">
        <ele>430</ele>
        <time>2015-08-16T09:23:08Z</time>
      </trkpt>
      <trkpt lat="50.11703" lon="5.55426">
        <ele>431</ele>
        <time>2015-08-16T09:23:14Z</time>
      </trkpt>
      <trkpt lat="50.11704" lon="5.55416">
        <ele>431</ele>
        <time>2015-08-16T09:23:19Z</time>
      </trkpt>
      <trkpt lat="50.11705" lon="5.55407">
        <ele>431</ele>
        <time>2015-08-16T09:23:25Z</time>
      </trkpt>
      <trkpt lat="50.11706" lon="5.554">
        <ele>431</ele>
        <time>2015-08-16T09:23:30Z</time>
      </trkpt>
      <trkpt lat="50.11706" lon="5.55395">
        <ele>431</ele>
        <time>2015-08-16T09:23:36Z</time>
      </trkpt>
      <trkpt lat="50.11706" lon="5.55388">
        <ele>431</ele>
        <time>2015-08-16T09:23:41Z</time>
      </trkpt>
      <trkpt lat="50.11706" lon="5.55379">
        <ele>431</ele>
        <time>2015-08-16T09:23:47Z</time>
      </trkpt>
      <trkpt lat="50.11705" lon="5.55371">
        <ele>430</ele>
        <time>2015-08-16T09:23:52Z</time>
      </trkpt>
      <trkpt lat="50.11705" lon="5.55362">
        <ele>431</ele>
        <time>2015-08-16T09:23:58Z</time>
      </trkpt>
      <trkpt lat="50.11706" lon="5.55353">
        <ele>430</ele>
        <time>2015-08-16T09:24:03Z</time>
      </trkpt>
      <trkpt lat="50.11706" lon="5.55347">
        <ele>431</ele>
        <time>2015-08-16T09:24:08Z</time>
      </trkpt>
      <trkpt lat="50.11706" lon="5.55339">
        <ele>431</ele>
        <time>2015-08-16T09:24:14Z</time>
      </trkpt>
      <trkpt lat="50.11706" lon="5.55331">
        <ele>431</ele>
        <time>2015-08-16T09:24:20Z</time>
      </trkpt>
      <trkpt lat="50.11706" lon="5.55325">
        <ele>431</ele>
        <time>2015-08-16T09:24:25Z</time>
      </trkpt>
      <trkpt lat="50.11706" lon="5.55317">
        <ele>431</ele>
        <time>2015-08-16T09:24:30Z</time>
      </trkpt>
      <trkpt lat="50.11707" lon="5.55308">
        <ele>430</ele>
        <time>2015-08-16T09:24:36Z</time>
      </trkpt>
      <trkpt lat="50.11707" lon="5.55298">
        <ele>431</ele>
        <time>2015-08-16T09:24:42Z</time>
      </trkpt>
      <trkpt lat="50.11706" lon="5.55287">
        <ele>431</ele>
        <time>2015-08-16T09:24:48Z</time>
      </trkpt>
      <trkpt lat="50.11706" lon="5.55278">
        <ele>431</ele>
        <time>2015-08-16T09:24:53Z</time>
      </trkpt>
      <trkpt lat="50.11705" lon="5.55268">
        <ele>431</ele>
        <time>2015-08-16T09:24:59Z</time>
      </trkpt>
      <trkpt lat="50.11705" lon="5.55257">
        <ele>430</ele>
        <time>2015-08-16T09:25:05Z</time>
      </trkpt>
      <trkpt lat="50.11705" lon="5.55248">
        <ele>430</ele>
        <time>2015-08-16T09:25:10Z</time>
      </trkpt>
      <trkpt lat="50.11705" lon="5.55236">
        <ele>430</ele>
        <time>2015-08-16T09:25:16Z</time>
      </trkpt>
      <trkpt lat="50.11705" lon="5.55228">
        <ele>430</ele>
        <time>2015-08-16T09:25:21Z</time>
      </trkpt>
      <trkpt lat="50.11705" lon="5.55218">
        <ele>430</ele>
        <time>2015-08-16T09:25:27Z</time>
      </trkpt>
      <trkpt lat="50.11704" lon="5.55209">
        <ele>430</ele>
        <time>2015-08-16T09:25:32Z</time>
      </trkpt>
      <trkpt lat="50.11704" lon="5.55201">
        <ele>431</ele>
        <time>2015-08-16T09:25:38Z</time>
      </trkpt>
      <trkpt lat="50.11705" lon="5.55193">
        <ele>430</ele>
        <time>2015-08-16T09:25:43Z</time>
      </trkpt>
      <trkpt lat="50.11704" lon="5.55183">
        <ele>430</ele>
        <time>2015-08-16T09:25:49Z</time>
      </trkpt>
      <trkpt lat="50.11703" lon="5.55177">
        <ele>430</ele>
        <time>2015-08-16T09:25:55Z</time>
      </trkpt>
      <trkpt lat="50.11701" lon="5.55169">
        <ele>430</ele>
        <time>2015-08-16T09:26:01Z</time>
      </trkpt>
      <trkpt lat="50.117" lon="5.5516">
        <ele>430</ele>
        <time>2015-08-16T09:26:06Z</time>
      </trkpt>
      <trkpt lat="50.11699" lon="5.55149">
        <ele>430</ele>
        <time>2015-08-16T09:26:12Z</time>
      </trkpt>
      <trkpt lat="50.11699" lon="5.55139">
        <ele>430</ele>
        <time>2015-08-16T09:26:18Z</time>
      </trkpt>
      <trkpt lat="50.11698" lon="5.55132">
        <ele>429</ele>
        <time>2015-08-16T09:26:23Z</time>
      </trkpt>
      <trkpt lat="50.11698" lon="5.55123">
        <ele>429</ele>
        <time>2015-08-16T09:26:29Z</time>
      </trkpt>
      <trkpt lat="50.11697" lon="5.55113">
        <ele>429</ele>
        <time>2015-08-16T09:26:34Z</time>
      </trkpt>
      <trkpt lat="50.11696" lon="5.55104">
        <ele>429</ele>
        <time>2015-08-16T09:26:39Z</time>
      </trkpt>
      <trkpt lat="50.11696" lon="5.55096">
        <ele>429</ele>
        <time>2015-08-16T09:26:44Z</time>
      </trkpt>
      <trkpt lat="50.11696" lon="5.55088">
        <ele>429</ele>
        <time>2015-08-16T09:26:50Z</time>
      </trkpt>
      <trkpt lat="50.11695" lon="5.55078">
        <ele>429</ele>
        <time>2015-08-16T09:26:56Z</time>
      </trkpt>
      <trkpt lat="50.11695" lon="5.5507">
        <ele>429</ele>
        <time>2015-08-16T09:27:01Z</time>
      </trkpt>
      <trkpt lat="50.11694" lon="5.55061">
        <ele>429</ele>
        <time>2015-08-16T09:27:06Z</time>
      </trkpt>
      <trkpt lat="50.11694" lon="5.55054">
        <ele>429</ele>
        <time>2015-08-16T09:27:12Z</time>
      </trkpt>
      <trkpt lat="50.11693" lon="5.55046">
        <ele>429</ele>
        <time>2015-08-16T09:27:17Z</time>
      </trkpt>
      <trkpt lat="50.11693" lon="5.55038">
        <ele>429</ele>
        <time>2015-08-16T09:27:23Z</time>
      </trkpt>
      <trkpt lat="50.11691" lon="5.55028">
        <ele>430</ele>
        <time>2015-08-16T09:27:29Z</time>
      </trkpt>
      <trkpt lat="50.1169" lon="5.55016">
        <ele>430</ele>
        <time>2015-08-16T09:27:35Z</time>
      </trkpt>
      <trkpt lat="50.1169" lon="5.55007">
        <ele>430</ele>
        <time>2015-08-16T09:27:40Z</time>
      </trkpt>
      <trkpt lat="50.11689" lon="5.54998">
        <ele>430</ele>
        <time>2015-08-16T09:27:45Z</time>
      </trkpt>
      <trkpt lat="50.11689" lon="5.54989">
        <ele>430</ele>
        <time>2015-08-16T09:27:50Z</time>
      </trkpt>
      <trkpt lat="50.11688" lon="5.54979">
        <ele>430</ele>
        <time>2015-08-16T09:27:55Z</time>
      </trkpt>
      <trkpt lat="50.11688" lon="5.5497">
        <ele>430</ele>
        <time>2015-08-16T09:28:01Z</time>
      </trkpt>
      <trkpt lat="50.11688" lon="5.54962">
        <ele>430</ele>
        <time>2015-08-16T09:28:06Z</time>
      </trkpt>
      <trkpt lat="50.11687" lon="5.54964">
        <ele>430</ele>
        <time>2015-08-16T09:28:12Z</time>
      </trkpt>
      <trkpt lat="50.11688" lon="5.54964">
        <ele>429</ele>
        <time>2015-08-16T09:28:18Z</time>
      </trkpt>
      <trkpt lat="50.11688" lon="5.54964">
        <ele>430</ele>
        <time>2015-08-16T09:28:23Z</time>
      </trkpt>
      <trkpt lat="50.11689" lon="5.54967">
        <ele>430</ele>
        <time>2015-08-16T09:28:29Z</time>
      </trkpt>
      <trkpt lat="50.11689" lon="5.54967">
        <ele>430</ele>
        <time>2015-08-16T09:28:34Z</time>
      </trkpt>
      <trkpt lat="50.11688" lon="5.54967">
        <ele>431</ele>
        <time>2015-08-16T09:28:40Z</time>
      </trkpt>
      <trkpt lat="50.11688" lon="5.54967">
        <ele>430</ele>
        <time>2015-08-16T09:28:46Z</time>
      </trkpt>
      <trkpt lat="50.11689" lon="5.54967">
        <ele>430</ele>
        <time>2015-08-16T09:28:51Z</time>
      </trkpt>
      <trkpt lat="50.11689" lon="5.54967">
        <ele>430</ele>
        <time>2015-08-16T09:28:57Z</time>
      </trkpt>
      <trkpt lat="50.11689" lon="5.54966">
        <ele>430</ele>
        <time>2015-08-16T09:29:03Z</time>
      </trkpt>
      <trkpt lat="50.11689" lon="5.54966">
        <ele>430</ele>
        <time>2015-08-16T09:29:09Z</time>
      </trkpt>
      <trkpt lat="50.11689" lon="5.54967">
        <ele>430</ele>
        <time>2015-08-16T09:29:15Z</time>
      </trkpt>
      <trkpt lat="50.11689" lon="5.54968">
        <ele>430</ele>
        <time>2015-08-16T09:29:21Z</time>
      </trkpt>
      <trkpt lat="50.11689" lon="5.54969">
        <ele>431</ele>
        <time>2015-08-16T09:29:28Z</time>
      </trkpt>
      <trkpt lat="50.11688" lon="5.5497">
        <ele>430</ele>
        <time>2015-08-16T09:29:34Z</time>
      </trkpt>
      <trkpt lat="50.11687" lon="5.54971">
        <ele>431</ele>
        <time>2015-08-16T09:29:40Z</time>
      </trkpt>
      <trkpt lat="50.11687" lon="5.54972">
        <ele>431</ele>
        <time>2015-08-16T09:29:47Z</time>
      </trkpt>
      <trkpt lat="50.11687" lon="5.54972">
        <ele>431</ele>
        <time>2015-08-16T09:29:52Z</time>
      </trkpt>
      <trkpt lat="50.11688" lon="5.54972">
        <ele>431</ele>
        <time>2015-08-16T09:29:57Z</time>
      </trkpt>
      <trkpt lat="50.11688" lon="5.54972">
        <ele>431</ele>
        <time>2015-08-16T09:30:03Z</time>
      </trkpt>
      <trkpt lat="50.11688" lon="5.54972">
        <ele>431</ele>
        <time>2015-08-16T09:30:09Z</time>
      </trkpt>
      <trkpt lat="50.11687" lon="5.54971">
        <ele>431</ele>
        <time>2015-08-16T09:30:14Z</time>
      </trkpt>
      <trkpt lat="50.11687" lon="5.5497">
        <ele>431</ele>
        <time>2015-08-16T09:30:20Z</time>
      </trkpt>
      <trkpt lat="50.11685" lon="5.54967">
        <ele>430</ele>
        <time>2015-08-16T09:30:26Z</time>
      </trkpt>
      <trkpt lat="50.11685" lon="5.54968">
        <ele>430</ele>
        <time>2015-08-16T09:30:31Z</time>
      </trkpt>
      <trkpt lat="50.11687" lon="5.54969">
        <ele>431</ele>
        <time>2015-08-16T09:30:37Z</time>
      </trkpt>
      <trkpt lat="50.11687" lon="5.54968">
        <ele>431</ele>
        <time>2015-08-16T09:30:43Z</time>
      </trkpt>
      <trkpt lat="50.11687" lon="5.54967">
        <ele>430</ele>
        <time>2015-08-16T09:30:49Z</time>
      </trkpt>
      <trkpt lat="50.11687" lon="5.54967">
        <ele>431</ele>
        <time>2015-08-16T09:30:54Z</time>
      </trkpt>
      <trkpt lat="50.11687" lon="5.54966">
        <ele>431</ele>
        <time>2015-08-16T09:31:02Z</time>
      </trkpt>
      <trkpt lat="50.11687" lon="5.54967">
        <ele>431</ele>
        <time>2015-08-16T09:31:08Z</time>
      </trkpt>
      <trkpt lat="50.11687" lon="5.54967">
        <ele>431</ele>
        <time>2015-08-16T09:31:14Z</time>
      </trkpt>
      <trkpt lat="50.11688" lon="5.54968">
        <ele>431</ele>
        <time>2015-08-16T09:31:20Z</time>
      </trkpt>
      <trkpt lat="50.11688" lon="5.54968">
        <ele>431</ele>
        <time>2015-08-16T09:31:28Z</time>
      </trkpt>
      <trkpt lat="50.11688" lon="5.54968">
        <ele>431</ele>
        <time>2015-08-16T09:31:34Z</time>
      </trkpt>
      <trkpt lat="50.11687" lon="5.54967">
        <ele>431</ele>
        <time>2015-08-16T09:31:40Z</time>
      </trkpt>
      <trkpt lat="50.11687" lon="5.54967">
        <ele>431</ele>
        <time>2015-08-16T09:31:45Z</time>
      </trkpt>
      <trkpt lat="50.11686" lon="5.54967">
        <ele>430</ele>
        <time>2015-08-16T09:31:51Z</time>
      </trkpt>
      <trkpt lat="50.11686" lon="5.54967">
        <ele>431</ele>
        <time>2015-08-16T09:31:57Z</time>
      </trkpt>
      <trkpt lat="50.11686" lon="5.54967">
        <ele>430</ele>
        <time>2015-08-16T09:32:04Z</time>
      </trkpt>
      <trkpt lat="50.11686" lon="5.54967">
        <ele>431</ele>
        <time>2015-08-16T09:32:09Z</time>
      </trkpt>
      <trkpt lat="50.11686" lon="5.54967">
        <ele>431</ele>
        <time>2015-08-16T09:32:16Z</time>
      </trkpt>
      <trkpt lat="50.11686" lon="5.54968">
        <ele>431</ele>
        <time>2015-08-16T09:32:21Z</time>
      </trkpt>
      <trkpt lat="50.11685" lon="5.54967">
        <ele>431</ele>
        <time>2015-08-16T09:32:26Z</time>
      </trkpt>
      <trkpt lat="50.11685" lon="5.54967">
        <ele>431</ele>
        <time>2015-08-16T09:32:33Z</time>
      </trkpt>
      <trkpt lat="50.11685" lon="5.54967">
        <ele>431</ele>
        <time>2015-08-16T09:32:38Z</time>
      </trkpt>
      <trkpt lat="50.11685" lon="5.54968">
        <ele>432</ele>
        <time>2015-08-16T09:32:44Z</time>
      </trkpt>
      <trkpt lat="50.11685" lon="5.54967">
        <ele>432</ele>
        <time>2015-08-16T09:32:49Z</time>
      </trkpt>
      <trkpt lat="50.11685" lon="5.54967">
        <ele>431</ele>
        <time>2015-08-16T09:32:54Z</time>
      </trkpt>
      <trkpt lat="50.11684" lon="5.54966">
        <ele>431</ele>
        <time>2015-08-16T09:33:00Z</time>
      </trkpt>
      <trkpt lat="50.11685" lon="5.54965">
        <ele>432</ele>
        <time>2015-08-16T09:33:05Z</time>
      </trkpt>
      <trkpt lat="50.11684" lon="5.54967">
        <ele>431</ele>
        <time>2015-08-16T09:33:10Z</time>
      </trkpt>
      <trkpt lat="50.1168" lon="5.54968">
        <ele>431</ele>
        <time>2015-08-16T09:33:16Z</time>
      </trkpt>
      <trkpt lat="50.11676" lon="5.5497">
        <ele>432</ele>
        <time>2015-08-16T09:33:21Z</time>
      </trkpt>
      <trkpt lat="50.1167" lon="5.54973">
        <ele>432</ele>
        <time>2015-08-16T09:33:27Z</time>
      </trkpt>
      <trkpt lat="50.11664" lon="5.54975">
        <ele>431</ele>
        <time>2015-08-16T09:33:33Z</time>
      </trkpt>
      <trkpt lat="50.11658" lon="5.54976">
        <ele>431</ele>
        <time>2015-08-16T09:33:38Z</time>
      </trkpt>
      <trkpt lat="50.11652" lon="5.54978">
        <ele>431</ele>
        <time>2015-08-16T09:33:44Z</time>
      </trkpt>
      <trkpt lat="50.11647" lon="5.5498">
        <ele>431</ele>
        <time>2015-08-16T09:33:49Z</time>
      </trkpt>
      <trkpt lat="50.1164" lon="5.54983">
        <ele>430</ele>
        <time>2015-08-16T09:33:55Z</time>
      </trkpt>
      <trkpt lat="50.11634" lon="5.54985">
        <ele>430</ele>
        <time>2015-08-16T09:34:00Z</time>
      </trkpt>
      <trkpt lat="50.11628" lon="5.54988">
        <ele>430</ele>
        <time>2015-08-16T09:34:05Z</time>
      </trkpt>
      <trkpt lat="50.11623" lon="5.54991">
        <ele>430</ele>
        <time>2015-08-16T09:34:10Z</time>
      </trkpt>
      <trkpt lat="50.11616" lon="5.54993">
        <ele>429</ele>
        <time>2015-08-16T09:34:16Z</time>
      </trkpt>
      <trkpt lat="50.11611" lon="5.54995">
        <ele>429</ele>
        <time>2015-08-16T09:34:21Z</time>
      </trkpt>
      <trkpt lat="50.11604" lon="5.54998">
        <ele>428</ele>
        <time>2015-08-16T09:34:27Z</time>
      </trkpt>
      <trkpt lat="50.11599" lon="5.55">
        <ele>428</ele>
        <time>2015-08-16T09:34:32Z</time>
      </trkpt>
      <trkpt lat="50.11593" lon="5.55002">
        <ele>428</ele>
        <time>2015-08-16T09:34:37Z</time>
      </trkpt>
      <trkpt lat="50.11586" lon="5.55005">
        <ele>427</ele>
        <time>2015-08-16T09:34:43Z</time>
      </trkpt>
      <trkpt lat="50.11579" lon="5.55007">
        <ele>427</ele>
        <time>2015-08-16T09:34:49Z</time>
      </trkpt>
      <trkpt lat="50.11572" lon="5.55009">
        <ele>426</ele>
        <time>2015-08-16T09:34:55Z</time>
      </trkpt>
      <trkpt lat="50.11565" lon="5.55012">
        <ele>426</ele>
        <time>2015-08-16T09:35:01Z</time>
      </trkpt>
      <trkpt lat="50.11559" lon="5.55015">
        <ele>426</ele>
        <time>2015-08-16T09:35:06Z</time>
      </trkpt>
      <trkpt lat="50.11554" lon="5.55017">
        <ele>425</ele>
        <time>2015-08-16T09:35:11Z</time>
      </trkpt>
      <trkpt lat="50.11548" lon="5.55021">
        <ele>425</ele>
        <time>2015-08-16T09:35:17Z</time>
      </trkpt>
      <trkpt lat="50.11542" lon="5.55024">
        <ele>425</ele>
        <time>2015-08-16T09:35:22Z</time>
      </trkpt>
      <trkpt lat="50.11535" lon="5.55029">
        <ele>424</ele>
        <time>2015-08-16T09:35:28Z</time>
      </trkpt>
      <trkpt lat="50.11529" lon="5.55034">
        <ele>424</ele>
        <time>2015-08-16T09:35:33Z</time>
      </trkpt>
      <trkpt lat="50.11524" lon="5.55037">
        <ele>423</ele>
        <time>2015-08-16T09:35:38Z</time>
      </trkpt>
      <trkpt lat="50.11517" lon="5.5504">
        <ele>423</ele>
        <time>2015-08-16T09:35:44Z</time>
      </trkpt>
      <trkpt lat="50.11512" lon="5.5504">
        <ele>422</ele>
        <time>2015-08-16T09:35:50Z</time>
      </trkpt>
      <trkpt lat="50.11508" lon="5.5504">
        <ele>421</ele>
        <time>2015-08-16T09:35:55Z</time>
      </trkpt>
      <trkpt lat="50.11505" lon="5.5504">
        <ele>420</ele>
        <time>2015-08-16T09:36:01Z</time>
      </trkpt>
      <trkpt lat="50.11503" lon="5.5504">
        <ele>421</ele>
        <time>2015-08-16T09:36:08Z</time>
      </trkpt>
      <trkpt lat="50.11503" lon="5.5504">
        <ele>421</ele>
        <time>2015-08-16T09:36:14Z</time>
      </trkpt>
      <trkpt lat="50.11503" lon="5.55039">
        <ele>421</ele>
        <time>2015-08-16T09:36:19Z</time>
      </trkpt>
      <trkpt lat="50.11502" lon="5.5504">
        <ele>421</ele>
        <time>2015-08-16T09:36:26Z</time>
      </trkpt>
      <trkpt lat="50.11502" lon="5.55041">
        <ele>421</ele>
        <time>2015-08-16T09:36:31Z</time>
      </trkpt>
      <trkpt lat="50.11499" lon="5.55043">
        <ele>421</ele>
        <time>2015-08-16T09:36:37Z</time>
      </trkpt>
      <trkpt lat="50.11493" lon="5.55046">
        <ele>420</ele>
        <time>2015-08-16T09:36:43Z</time>
      </trkpt>
      <trkpt lat="50.11488" lon="5.55049">
        <ele>420</ele>
        <time>2015-08-16T09:36:49Z</time>
      </trkpt>
      <trkpt lat="50.11483" lon="5.5505">
        <ele>419</ele>
        <time>2015-08-16T09:36:54Z</time>
      </trkpt>
      <trkpt lat="50.11478" lon="5.55053">
        <ele>419</ele>
        <time>2015-08-16T09:36:59Z</time>
      </trkpt>
      <trkpt lat="50.11473" lon="5.55054">
        <ele>419</ele>
        <time>2015-08-16T09:37:05Z</time>
      </trkpt>
      <trkpt lat="50.11469" lon="5.55055">
        <ele>418</ele>
        <time>2015-08-16T09:37:11Z</time>
      </trkpt>
      <trkpt lat="50.11464" lon="5.55056">
        <ele>418</ele>
        <time>2015-08-16T09:37:17Z</time>
      </trkpt>
      <trkpt lat="50.11458" lon="5.55057">
        <ele>418</ele>
        <time>2015-08-16T09:37:23Z</time>
      </trkpt>
      <trkpt lat="50.11453" lon="5.55057">
        <ele>417</ele>
        <time>2015-08-16T09:37:28Z</time>
      </trkpt>
      <trkpt lat="50.11452" lon="5.55057">
        <ele>417</ele>
        <time>2015-08-16T09:37:35Z</time>
      </trkpt>
      <trkpt lat="50.1145" lon="5.55056">
        <ele>417</ele>
        <time>2015-08-16T09:37:41Z</time>
      </trkpt>
      <trkpt lat="50.11445" lon="5.55057">
        <ele>417</ele>
        <time>2015-08-16T09:37:46Z</time>
      </trkpt>
      <trkpt lat="50.11441" lon="5.55059">
        <ele>416</ele>
        <time>2015-08-16T09:37:51Z</time>
      </trkpt>
      <trkpt lat="50.1144" lon="5.5506">
        <ele>416</ele>
        <time>2015-08-16T09:37:57Z</time>
      </trkpt>
      <trkpt lat="50.11439" lon="5.55063">
        <ele>416</ele>
        <time>2015-08-16T09:38:02Z</time>
      </trkpt>
      <trkpt lat="50.11439" lon="5.55066">
        <ele>416</ele>
        <time>2015-08-16T09:38:07Z</time>
      </trkpt>
      <trkpt lat="50.11438" lon="5.55069">
        <ele>416</ele>
        <time>2015-08-16T09:38:12Z</time>
      </trkpt>
      <trkpt lat="50.11436" lon="5.55071">
        <ele>416</ele>
        <time>2015-08-16T09:38:18Z</time>
      </trkpt>
      <trkpt lat="50.11435" lon="5.55075">
        <ele>416</ele>
        <time>2015-08-16T09:38:23Z</time>
      </trkpt>
      <trkpt lat="50.11436" lon="5.5508">
        <ele>416</ele>
        <time>2015-08-16T09:38:29Z</time>
      </trkpt>
      <trkpt lat="50.11436" lon="5.5508">
        <ele>416</ele>
        <time>2015-08-16T09:38:35Z</time>
      </trkpt>
      <trkpt lat="50.11436" lon="5.55079">
        <ele>416</ele>
        <time>2015-08-16T09:38:40Z</time>
      </trkpt>
      <trkpt lat="50.11436" lon="5.5508">
        <ele>416</ele>
        <time>2015-08-16T09:38:46Z</time>
      </trkpt>
      <trkpt lat="50.11436" lon="5.5508">
        <ele>416</ele>
        <time>2015-08-16T09:38:52Z</time>
      </trkpt>
      <trkpt lat="50.11435" lon="5.55081">
        <ele>416</ele>
        <time>2015-08-16T09:38:58Z</time>
      </trkpt>
      <trkpt lat="50.11435" lon="5.55081">
        <ele>416</ele>
        <time>2015-08-16T09:39:03Z</time>
      </trkpt>
      <trkpt lat="50.11435" lon="5.55082">
        <ele>416</ele>
        <time>2015-08-16T09:39:08Z</time>
      </trkpt>
      <trkpt lat="50.11435" lon="5.55083">
        <ele>416</ele>
        <time>2015-08-16T09:39:14Z</time>
      </trkpt>
      <trkpt lat="50.11434" lon="5.55084">
        <ele>416</ele>
        <time>2015-08-16T09:39:20Z</time>
      </trkpt>
      <trkpt lat="50.11434" lon="5.55086">
        <ele>415</ele>
        <time>2015-08-16T09:39:26Z</time>
      </trkpt>
      <trkpt lat="50.11433" lon="5.55087">
        <ele>415</ele>
        <time>2015-08-16T09:39:32Z</time>
      </trkpt>
      <trkpt lat="50.11432" lon="5.55087">
        <ele>415</ele>
        <time>2015-08-16T09:39:37Z</time>
      </trkpt>
      <trkpt lat="50.11431" lon="5.55085">
        <ele>416</ele>
        <time>2015-08-16T09:39:43Z</time>
      </trkpt>
      <trkpt lat="50.11431" lon="5.55085">
        <ele>416</ele>
        <time>2015-08-16T09:39:49Z</time>
      </trkpt>
      <trkpt lat="50.1143" lon="5.55084">
        <ele>416</ele>
        <time>2015-08-16T09:39:54Z</time>
      </trkpt>
      <trkpt lat="50.11431" lon="5.55084">
        <ele>415</ele>
        <time>2015-08-16T09:40:00Z</time>
      </trkpt>
      <trkpt lat="50.1143" lon="5.55084">
        <ele>415</ele>
        <time>2015-08-16T09:40:06Z</time>
      </trkpt>
      <trkpt lat="50.11429" lon="5.55082">
        <ele>416</ele>
        <time>2015-08-16T09:40:12Z</time>
      </trkpt>
      <trkpt lat="50.11427" lon="5.55083">
        <ele>416</ele>
        <time>2015-08-16T09:40:19Z</time>
      </trkpt>
      <trkpt lat="50.11427" lon="5.55085">
        <ele>416</ele>
        <time>2015-08-16T09:40:25Z</time>
      </trkpt>
      <trkpt lat="50.11426" lon="5.55084">
        <ele>416</ele>
        <time>2015-08-16T09:40:30Z</time>
      </trkpt>
      <trkpt lat="50.11426" lon="5.55083">
        <ele>416</ele>
        <time>2015-08-16T09:40:36Z</time>
      </trkpt>
      <trkpt lat="50.11425" lon="5.55083">
        <ele>416</ele>
        <time>2015-08-16T09:40:42Z</time>
      </trkpt>
      <trkpt lat="50.11426" lon="5.55084">
        <ele>416</ele>
        <time>2015-08-16T09:40:47Z</time>
      </trkpt>
      <trkpt lat="50.11427" lon="5.55084">
        <ele>416</ele>
        <time>2015-08-16T09:40:53Z</time>
      </trkpt>
      <trkpt lat="50.11428" lon="5.55085">
        <ele>416</ele>
        <time>2015-08-16T09:40:58Z</time>
      </trkpt>
      <trkpt lat="50.11428" lon="5.55085">
        <ele>416</ele>
        <time>2015-08-16T09:41:04Z</time>
      </trkpt>
      <trkpt lat="50.11429" lon="5.55084">
        <ele>416</ele>
        <time>2015-08-16T09:41:10Z</time>
      </trkpt>
      <trkpt lat="50.1143" lon="5.55083">
        <ele>416</ele>
        <time>2015-08-16T09:41:17Z</time>
      </trkpt>
      <trkpt lat="50.11431" lon="5.55081">
        <ele>416</ele>
        <time>2015-08-16T09:41:23Z</time>
      </trkpt>
      <trkpt lat="50.11431" lon="5.55077">
        <ele>416</ele>
        <time>2015-08-16T09:41:28Z</time>
      </trkpt>
      <trkpt lat="50.11431" lon="5.55077">
        <ele>416</ele>
        <time>2015-08-16T09:41:34Z</time>
      </trkpt>
      <trkpt lat="50.1143" lon="5.55077">
        <ele>416</ele>
        <time>2015-08-16T09:41:40Z</time>
      </trkpt>
      <trkpt lat="50.11427" lon="5.55079">
        <ele>416</ele>
        <time>2015-08-16T09:41:45Z</time>
      </trkpt>
      <trkpt lat="50.11424" lon="5.55081">
        <ele>415</ele>
        <time>2015-08-16T09:41:51Z</time>
      </trkpt>
      <trkpt lat="50.11422" lon="5.55083">
        <ele>415</ele>
        <time>2015-08-16T09:41:56Z</time>
      </trkpt>
      <trkpt lat="50.1142" lon="5.55087">
        <ele>414</ele>
        <time>2015-08-16T09:42:02Z</time>
      </trkpt>
      <trkpt lat="50.11418" lon="5.55094">
        <ele>414</ele>
        <time>2015-08-16T09:42:08Z</time>
      </trkpt>
      <trkpt lat="50.11415" lon="5.55092">
        <ele>414</ele>
        <time>2015-08-16T09:42:14Z</time>
      </trkpt>
      <trkpt lat="50.11414" lon="5.55092">
        <ele>414</ele>
        <time>2015-08-16T09:42:19Z</time>
      </trkpt>
      <trkpt lat="50.11412" lon="5.55093">
        <ele>413</ele>
        <time>2015-08-16T09:42:24Z</time>
      </trkpt>
      <trkpt lat="50.11413" lon="5.55095">
        <ele>413</ele>
        <time>2015-08-16T09:42:30Z</time>
      </trkpt>
      <trkpt lat="50.11413" lon="5.55096">
        <ele>413</ele>
        <time>2015-08-16T09:42:35Z</time>
      </trkpt>
      <trkpt lat="50.11413" lon="5.55096">
        <ele>413</ele>
        <time>2015-08-16T09:42:41Z</time>
      </trkpt>
      <trkpt lat="50.11413" lon="5.55096">
        <ele>414</ele>
        <time>2015-08-16T09:42:47Z</time>
      </trkpt>
      <trkpt lat="50.11412" lon="5.55095">
        <ele>413</ele>
        <time>2015-08-16T09:42:52Z</time>
      </trkpt>
      <trkpt lat="50.11412" lon="5.55095">
        <ele>413</ele>
        <time>2015-08-16T09:42:58Z</time>
      </trkpt>
      <trkpt lat="50.11412" lon="5.55095">
        <ele>413</ele>
        <time>2015-08-16T09:43:04Z</time>
      </trkpt>
      <trkpt lat="50.11412" lon="5.55095">
        <ele>413</ele>
        <time>2015-08-16T09:43:09Z</time>
      </trkpt>
      <trkpt lat="50.11411" lon="5.55096">
        <ele>413</ele>
        <time>2015-08-16T09:43:14Z</time>
      </trkpt>
      <trkpt lat="50.11412" lon="5.55096">
        <ele>414</ele>
        <time>2015-08-16T09:43:20Z</time>
      </trkpt>
      <trkpt lat="50.11411" lon="5.55097">
        <ele>413</ele>
        <time>2015-08-16T09:43:26Z</time>
      </trkpt>
      <trkpt lat="50.1141" lon="5.55096">
        <ele>414</ele>
        <time>2015-08-16T09:43:32Z</time>
      </trkpt>
      <trkpt lat="50.1141" lon="5.55097">
        <ele>414</ele>
        <time>2015-08-16T09:43:38Z</time>
      </trkpt>
      <trkpt lat="50.1141" lon="5.55097">
        <ele>414</ele>
        <time>2015-08-16T09:43:44Z</time>
      </trkpt>
      <trkpt lat="50.11411" lon="5.55096">
        <ele>414</ele>
        <time>2015-08-16T09:43:51Z</time>
      </trkpt>
      <trkpt lat="50.11411" lon="5.55096">
        <ele>414</ele>
        <time>2015-08-16T09:43:56Z</time>
      </trkpt>
      <trkpt lat="50.11412" lon="5.55095">
        <ele>414</ele>
        <time>2015-08-16T09:44:02Z</time>
      </trkpt>
      <trkpt lat="50.11412" lon="5.55095">
        <ele>414</ele>
        <time>2015-08-16T09:44:08Z</time>
      </trkpt>
      <trkpt lat="50.11411" lon="5.55096">
        <ele>414</ele>
        <time>2015-08-16T09:44:13Z</time>
      </trkpt>
      <trkpt lat="50.1141" lon="5.55096">
        <ele>414</ele>
        <time>2015-08-16T09:44:19Z</time>
      </trkpt>
      <trkpt lat="50.11409" lon="5.55096">
        <ele>414</ele>
        <time>2015-08-16T09:44:25Z</time>
      </trkpt>
      <trkpt lat="50.11409" lon="5.55096">
        <ele>414</ele>
        <time>2015-08-16T09:44:31Z</time>
      </trkpt>
      <trkpt lat="50.11409" lon="5.55098">
        <ele>414</ele>
        <time>2015-08-16T09:44:38Z</time>
      </trkpt>
      <trkpt lat="50.1141" lon="5.55098">
        <ele>414</ele>
        <time>2015-08-16T09:44:43Z</time>
      </trkpt>
      <trkpt lat="50.1141" lon="5.55098">
        <ele>414</ele>
        <time>2015-08-16T09:44:49Z</time>
      </trkpt>
      <trkpt lat="50.11411" lon="5.55098">
        <ele>414</ele>
        <time>2015-08-16T09:44:55Z</time>
      </trkpt>
      <trkpt lat="50.1141" lon="5.55098">
        <ele>414</ele>
        <time>2015-08-16T09:45:01Z</time>
      </trkpt>
      <trkpt lat="50.1141" lon="5.55098">
        <ele>414</ele>
        <time>2015-08-16T09:45:08Z</time>
      </trkpt>
      <trkpt lat="50.1141" lon="5.55098">
        <ele>414</ele>
        <time>2015-08-16T09:45:13Z</time>
      </trkpt>
      <trkpt lat="50.11409" lon="5.55096">
        <ele>414</ele>
        <time>2015-08-16T09:45:19Z</time>
      </trkpt>
      <trkpt lat="50.11409" lon="5.55094">
        <ele>414</ele>
        <time>2015-08-16T09:45:24Z</time>
      </trkpt>
      <trkpt lat="50.11408" lon="5.55093">
        <ele>414</ele>
        <time>2015-08-16T09:45:29Z</time>
      </trkpt>
      <trkpt lat="50.11407" lon="5.55092">
        <ele>414</ele>
        <time>2015-08-16T09:45:34Z</time>
      </trkpt>
      <trkpt lat="50.11406" lon="5.55091">
        <ele>414</ele>
        <time>2015-08-16T09:45:39Z</time>
      </trkpt>
      <trkpt lat="50.11406" lon="5.5509">
        <ele>414</ele>
        <time>2015-08-16T09:45:45Z</time>
      </trkpt>
      <trkpt lat="50.11405" lon="5.55089">
        <ele>414</ele>
        <time>2015-08-16T09:45:51Z</time>
      </trkpt>
      <trkpt lat="50.11404" lon="5.55089">
        <ele>414</ele>
        <time>2015-08-16T09:45:58Z</time>
      </trkpt>
      <trkpt lat="50.11404" lon="5.55089">
        <ele>414</ele>
        <time>2015-08-16T09:46:04Z</time>
      </trkpt>
      <trkpt lat="50.11404" lon="5.55088">
        <ele>413</ele>
        <time>2015-08-16T09:46:11Z</time>
      </trkpt>
      <trkpt lat="50.11404" lon="5.55088">
        <ele>414</ele>
        <time>2015-08-16T09:46:17Z</time>
      </trkpt>
      <trkpt lat="50.11403" lon="5.55088">
        <ele>414</ele>
        <time>2015-08-16T09:46:22Z</time>
      </trkpt>
      <trkpt lat="50.11403" lon="5.55087">
        <ele>414</ele>
        <time>2015-08-16T09:46:28Z</time>
      </trkpt>
      <trkpt lat="50.11403" lon="5.55087">
        <ele>414</ele>
        <time>2015-08-16T09:46:34Z</time>
      </trkpt>
      <trkpt lat="50.11403" lon="5.55086">
        <ele>414</ele>
        <time>2015-08-16T09:46:40Z</time>
      </trkpt>
      <trkpt lat="50.11404" lon="5.55086">
        <ele>414</ele>
        <time>2015-08-16T09:46:47Z</time>
      </trkpt>
      <trkpt lat="50.11404" lon="5.55086">
        <ele>414</ele>
        <time>2015-08-16T09:46:53Z</time>
      </trkpt>
      <trkpt lat="50.11404" lon="5.55087">
        <ele>414</ele>
        <time>2015-08-16T09:46:54Z</time>
      </trkpt>
    </trkseg>
  </trk>
</gpx>